<?xml version="1.0" encoding="UTF-8" standalone="no" ?>
<gpx xmlns="http://www.topografix.com/GPX/1/1" xmlns:xsi="http://www.w3.org/2001/XMLSchema-instance" xsi:schemaLocation="http://www.topografix.com/GPX/1/1 http://www.topografix.com/GPX/1/1/gpx.xsd" version="1.1" creator="VisuGPX - https://www.visugpx.com">
  <metadata>
    <name>Rando Pic Cabaliros</name>
    <desc><![CDATA[Le 05/03/2011, manque 30m avant d\'arriver au pic... partie glacée, et sans crampons donc...]]></desc>
  </metadata>
  <trk>
    <name><![CDATA[5 mars 2011 09:26:42]]></name>
    <cmt><![CDATA[5 mars 2011 09:26:42]]></cmt>
    <trkseg>
      <trkpt lat="42.97258" lon="-0.13786">
        <ele>1117</ele>
        <time>2011-03-05T08:26:43Z</time>
      </trkpt>
      <trkpt lat="42.97249" lon="-0.1379">
        <ele>1127</ele>
        <time>2011-03-05T08:27:09Z</time>
      </trkpt>
      <trkpt lat="42.97232" lon="-0.13822">
        <ele>1127</ele>
        <time>2011-03-05T08:27:34Z</time>
      </trkpt>
      <trkpt lat="42.97229" lon="-0.13835">
        <ele>1128</ele>
        <time>2011-03-05T08:27:46Z</time>
      </trkpt>
      <trkpt lat="42.97235" lon="-0.13878">
        <ele>1130</ele>
        <time>2011-03-05T08:28:24Z</time>
      </trkpt>
      <trkpt lat="42.97241" lon="-0.13918">
        <ele>1135</ele>
        <time>2011-03-05T08:28:51Z</time>
      </trkpt>
      <trkpt lat="42.97227" lon="-0.13942">
        <ele>1140</ele>
        <time>2011-03-05T08:29:13Z</time>
      </trkpt>
      <trkpt lat="42.97219" lon="-0.13949">
        <ele>1143</ele>
        <time>2011-03-05T08:29:35Z</time>
      </trkpt>
      <trkpt lat="42.9721" lon="-0.1395">
        <ele>1144</ele>
        <time>2011-03-05T08:29:48Z</time>
      </trkpt>
      <trkpt lat="42.97186" lon="-0.13962">
        <ele>1148</ele>
        <time>2011-03-05T08:30:19Z</time>
      </trkpt>
      <trkpt lat="42.97156" lon="-0.13964">
        <ele>1154</ele>
        <time>2011-03-05T08:30:52Z</time>
      </trkpt>
      <trkpt lat="42.97138" lon="-0.13972">
        <ele>1159</ele>
        <time>2011-03-05T08:31:14Z</time>
      </trkpt>
      <trkpt lat="42.9712" lon="-0.13976">
        <ele>1161</ele>
        <time>2011-03-05T08:31:20Z</time>
      </trkpt>
      <trkpt lat="42.97112" lon="-0.13967">
        <ele>1166</ele>
        <time>2011-03-05T08:31:36Z</time>
      </trkpt>
      <trkpt lat="42.97101" lon="-0.13947">
        <ele>1172</ele>
        <time>2011-03-05T08:32:09Z</time>
      </trkpt>
      <trkpt lat="42.97082" lon="-0.13931">
        <ele>1175</ele>
        <time>2011-03-05T08:32:38Z</time>
      </trkpt>
      <trkpt lat="42.97076" lon="-0.13922">
        <ele>1178</ele>
        <time>2011-03-05T08:33:00Z</time>
      </trkpt>
      <trkpt lat="42.97071" lon="-0.13921">
        <ele>1182</ele>
        <time>2011-03-05T08:33:22Z</time>
      </trkpt>
      <trkpt lat="42.97048" lon="-0.13915">
        <ele>1187</ele>
        <time>2011-03-05T08:33:55Z</time>
      </trkpt>
      <trkpt lat="42.9704" lon="-0.13909">
        <ele>1189</ele>
        <time>2011-03-05T08:34:07Z</time>
      </trkpt>
      <trkpt lat="42.97037" lon="-0.13904">
        <ele>1192</ele>
        <time>2011-03-05T08:34:18Z</time>
      </trkpt>
      <trkpt lat="42.97033" lon="-0.139">
        <ele>1192</ele>
        <time>2011-03-05T08:34:22Z</time>
      </trkpt>
      <trkpt lat="42.97018" lon="-0.13901">
        <ele>1199</ele>
        <time>2011-03-05T08:34:56Z</time>
      </trkpt>
      <trkpt lat="42.97009" lon="-0.13897">
        <ele>1203</ele>
        <time>2011-03-05T08:35:14Z</time>
      </trkpt>
      <trkpt lat="42.97005" lon="-0.139">
        <ele>1206</ele>
        <time>2011-03-05T08:35:30Z</time>
      </trkpt>
      <trkpt lat="42.96997" lon="-0.13894">
        <ele>1208</ele>
        <time>2011-03-05T08:35:47Z</time>
      </trkpt>
      <trkpt lat="42.9698" lon="-0.13882">
        <ele>1210</ele>
        <time>2011-03-05T08:36:16Z</time>
      </trkpt>
      <trkpt lat="42.96963" lon="-0.1388">
        <ele>1214</ele>
        <time>2011-03-05T08:36:46Z</time>
      </trkpt>
      <trkpt lat="42.96952" lon="-0.13869">
        <ele>1220</ele>
        <time>2011-03-05T08:37:19Z</time>
      </trkpt>
      <trkpt lat="42.96949" lon="-0.13863">
        <ele>1222</ele>
        <time>2011-03-05T08:37:35Z</time>
      </trkpt>
      <trkpt lat="42.96932" lon="-0.1385">
        <ele>1224</ele>
        <time>2011-03-05T08:38:02Z</time>
      </trkpt>
      <trkpt lat="42.96918" lon="-0.13846">
        <ele>1227</ele>
        <time>2011-03-05T08:38:33Z</time>
      </trkpt>
      <trkpt lat="42.96908" lon="-0.13832">
        <ele>1233</ele>
        <time>2011-03-05T08:38:56Z</time>
      </trkpt>
      <trkpt lat="42.96898" lon="-0.1383">
        <ele>1234</ele>
        <time>2011-03-05T08:39:05Z</time>
      </trkpt>
      <trkpt lat="42.96893" lon="-0.13831">
        <ele>1238</ele>
        <time>2011-03-05T08:39:27Z</time>
      </trkpt>
      <trkpt lat="42.96886" lon="-0.13824">
        <ele>1241</ele>
        <time>2011-03-05T08:39:40Z</time>
      </trkpt>
      <trkpt lat="42.96859" lon="-0.13811">
        <ele>1248</ele>
        <time>2011-03-05T08:40:14Z</time>
      </trkpt>
      <trkpt lat="42.9684" lon="-0.13811">
        <ele>1251</ele>
        <time>2011-03-05T08:40:47Z</time>
      </trkpt>
      <trkpt lat="42.96821" lon="-0.13813">
        <ele>1256</ele>
        <time>2011-03-05T08:41:24Z</time>
      </trkpt>
      <trkpt lat="42.96816" lon="-0.13812">
        <ele>1258</ele>
        <time>2011-03-05T08:41:40Z</time>
      </trkpt>
      <trkpt lat="42.96793" lon="-0.13808">
        <ele>1263</ele>
        <time>2011-03-05T08:42:12Z</time>
      </trkpt>
      <trkpt lat="42.96784" lon="-0.13802">
        <ele>1264</ele>
        <time>2011-03-05T08:42:20Z</time>
      </trkpt>
      <trkpt lat="42.9676" lon="-0.13807">
        <ele>1269</ele>
        <time>2011-03-05T08:42:52Z</time>
      </trkpt>
      <trkpt lat="42.96748" lon="-0.13797">
        <ele>1273</ele>
        <time>2011-03-05T08:43:13Z</time>
      </trkpt>
      <trkpt lat="42.96741" lon="-0.13787">
        <ele>1277</ele>
        <time>2011-03-05T08:43:29Z</time>
      </trkpt>
      <trkpt lat="42.96725" lon="-0.13774">
        <ele>1281</ele>
        <time>2011-03-05T08:44:02Z</time>
      </trkpt>
      <trkpt lat="42.9671" lon="-0.13762">
        <ele>1287</ele>
        <time>2011-03-05T08:44:31Z</time>
      </trkpt>
      <trkpt lat="42.96706" lon="-0.1375">
        <ele>1290</ele>
        <time>2011-03-05T08:44:47Z</time>
      </trkpt>
      <trkpt lat="42.96701" lon="-0.13747">
        <ele>1292</ele>
        <time>2011-03-05T08:44:55Z</time>
      </trkpt>
      <trkpt lat="42.96696" lon="-0.13747">
        <ele>1293</ele>
        <time>2011-03-05T08:45:04Z</time>
      </trkpt>
      <trkpt lat="42.96688" lon="-0.13742">
        <ele>1294</ele>
        <time>2011-03-05T08:45:13Z</time>
      </trkpt>
      <trkpt lat="42.96657" lon="-0.1373">
        <ele>1297</ele>
        <time>2011-03-05T08:45:51Z</time>
      </trkpt>
      <trkpt lat="42.96656" lon="-0.13724">
        <ele>1299</ele>
        <time>2011-03-05T08:46:12Z</time>
      </trkpt>
      <trkpt lat="42.96653" lon="-0.1372">
        <ele>1302</ele>
        <time>2011-03-05T08:46:33Z</time>
      </trkpt>
      <trkpt lat="42.96649" lon="-0.13732">
        <ele>1306</ele>
        <time>2011-03-05T08:46:48Z</time>
      </trkpt>
      <trkpt lat="42.96631" lon="-0.13752">
        <ele>1311</ele>
        <time>2011-03-05T08:47:20Z</time>
      </trkpt>
      <trkpt lat="42.96615" lon="-0.13774">
        <ele>1314</ele>
        <time>2011-03-05T08:47:51Z</time>
      </trkpt>
      <trkpt lat="42.96611" lon="-0.13782">
        <ele>1315</ele>
        <time>2011-03-05T08:48:06Z</time>
      </trkpt>
      <trkpt lat="42.96607" lon="-0.13783">
        <ele>1315</ele>
        <time>2011-03-05T08:48:18Z</time>
      </trkpt>
      <trkpt lat="42.96585" lon="-0.13805">
        <ele>1317</ele>
        <time>2011-03-05T08:48:45Z</time>
      </trkpt>
      <trkpt lat="42.96575" lon="-0.13818">
        <ele>1319</ele>
        <time>2011-03-05T08:49:07Z</time>
      </trkpt>
      <trkpt lat="42.96548" lon="-0.13834">
        <ele>1322</ele>
        <time>2011-03-05T08:49:42Z</time>
      </trkpt>
      <trkpt lat="42.96523" lon="-0.13843">
        <ele>1325</ele>
        <time>2011-03-05T08:50:16Z</time>
      </trkpt>
      <trkpt lat="42.96499" lon="-0.13846">
        <ele>1328</ele>
        <time>2011-03-05T08:50:47Z</time>
      </trkpt>
      <trkpt lat="42.96496" lon="-0.13852">
        <ele>1328</ele>
        <time>2011-03-05T08:50:48Z</time>
      </trkpt>
      <trkpt lat="42.96489" lon="-0.13859">
        <ele>1331</ele>
        <time>2011-03-05T08:51:11Z</time>
      </trkpt>
      <trkpt lat="42.96479" lon="-0.13868">
        <ele>1332</ele>
        <time>2011-03-05T08:51:20Z</time>
      </trkpt>
      <trkpt lat="42.96462" lon="-0.13894">
        <ele>1338</ele>
        <time>2011-03-05T08:52:00Z</time>
      </trkpt>
      <trkpt lat="42.96449" lon="-0.13903">
        <ele>1342</ele>
        <time>2011-03-05T08:52:24Z</time>
      </trkpt>
      <trkpt lat="42.96447" lon="-0.13897">
        <ele>1343</ele>
        <time>2011-03-05T08:52:34Z</time>
      </trkpt>
      <trkpt lat="42.96449" lon="-0.13877">
        <ele>1346</ele>
        <time>2011-03-05T08:52:56Z</time>
      </trkpt>
      <trkpt lat="42.96459" lon="-0.13846">
        <ele>1350</ele>
        <time>2011-03-05T08:53:32Z</time>
      </trkpt>
      <trkpt lat="42.9647" lon="-0.13824">
        <ele>1351</ele>
        <time>2011-03-05T08:53:56Z</time>
      </trkpt>
      <trkpt lat="42.96475" lon="-0.13811">
        <ele>1353</ele>
        <time>2011-03-05T08:54:23Z</time>
      </trkpt>
      <trkpt lat="42.96476" lon="-0.13797">
        <ele>1353</ele>
        <time>2011-03-05T08:54:31Z</time>
      </trkpt>
      <trkpt lat="42.96479" lon="-0.13757">
        <ele>1359</ele>
        <time>2011-03-05T08:55:19Z</time>
      </trkpt>
      <trkpt lat="42.9648" lon="-0.13719">
        <ele>1367</ele>
        <time>2011-03-05T08:56:01Z</time>
      </trkpt>
      <trkpt lat="42.96479" lon="-0.13705">
        <ele>1370</ele>
        <time>2011-03-05T08:56:16Z</time>
      </trkpt>
      <trkpt lat="42.9647" lon="-0.13705">
        <ele>1374</ele>
        <time>2011-03-05T08:56:32Z</time>
      </trkpt>
      <trkpt lat="42.96443" lon="-0.13727">
        <ele>1385</ele>
        <time>2011-03-05T08:57:09Z</time>
      </trkpt>
      <trkpt lat="42.96427" lon="-0.13746">
        <ele>1389</ele>
        <time>2011-03-05T08:57:44Z</time>
      </trkpt>
      <trkpt lat="42.96414" lon="-0.1376">
        <ele>1390</ele>
        <time>2011-03-05T08:58:05Z</time>
      </trkpt>
      <trkpt lat="42.96391" lon="-0.13771">
        <ele>1391</ele>
        <time>2011-03-05T08:58:38Z</time>
      </trkpt>
      <trkpt lat="42.96377" lon="-0.13782">
        <ele>1391</ele>
        <time>2011-03-05T08:58:57Z</time>
      </trkpt>
      <trkpt lat="42.96376" lon="-0.13775">
        <ele>1394</ele>
        <time>2011-03-05T08:59:23Z</time>
      </trkpt>
      <trkpt lat="42.96379" lon="-0.13744">
        <ele>1396</ele>
        <time>2011-03-05T08:59:58Z</time>
      </trkpt>
      <trkpt lat="42.96382" lon="-0.1374">
        <ele>1398</ele>
        <time>2011-03-05T09:00:12Z</time>
      </trkpt>
      <trkpt lat="42.96375" lon="-0.13738">
        <ele>1399</ele>
        <time>2011-03-05T09:00:22Z</time>
      </trkpt>
      <trkpt lat="42.96366" lon="-0.13736">
        <ele>1401</ele>
        <time>2011-03-05T09:00:33Z</time>
      </trkpt>
      <trkpt lat="42.96359" lon="-0.13739">
        <ele>1401</ele>
        <time>2011-03-05T09:00:42Z</time>
      </trkpt>
      <trkpt lat="42.96359" lon="-0.13737">
        <ele>1404</ele>
        <time>2011-03-05T09:01:13Z</time>
      </trkpt>
      <trkpt lat="42.96354" lon="-0.13736">
        <ele>1407</ele>
        <time>2011-03-05T09:01:41Z</time>
      </trkpt>
      <trkpt lat="42.96353" lon="-0.1373">
        <ele>1408</ele>
        <time>2011-03-05T09:01:56Z</time>
      </trkpt>
      <trkpt lat="42.96349" lon="-0.13741">
        <ele>1414</ele>
        <time>2011-03-05T09:02:41Z</time>
      </trkpt>
      <trkpt lat="42.96341" lon="-0.1376">
        <ele>1416</ele>
        <time>2011-03-05T09:02:59Z</time>
      </trkpt>
      <trkpt lat="42.96337" lon="-0.13763">
        <ele>1416</ele>
        <time>2011-03-05T09:03:04Z</time>
      </trkpt>
      <trkpt lat="42.96325" lon="-0.13762">
        <ele>1417</ele>
        <time>2011-03-05T09:03:18Z</time>
      </trkpt>
      <trkpt lat="42.96319" lon="-0.13753">
        <ele>1418</ele>
        <time>2011-03-05T09:03:39Z</time>
      </trkpt>
      <trkpt lat="42.96314" lon="-0.13729">
        <ele>1422</ele>
        <time>2011-03-05T09:04:17Z</time>
      </trkpt>
      <trkpt lat="42.96313" lon="-0.1371">
        <ele>1425</ele>
        <time>2011-03-05T09:07:46Z</time>
      </trkpt>
      <trkpt lat="42.96295" lon="-0.1368">
        <ele>1429</ele>
        <time>2011-03-05T09:08:26Z</time>
      </trkpt>
      <trkpt lat="42.96279" lon="-0.13648">
        <ele>1433</ele>
        <time>2011-03-05T09:09:06Z</time>
      </trkpt>
      <trkpt lat="42.9627" lon="-0.13624">
        <ele>1439</ele>
        <time>2011-03-05T09:09:35Z</time>
      </trkpt>
      <trkpt lat="42.96262" lon="-0.13618">
        <ele>1442</ele>
        <time>2011-03-05T09:10:12Z</time>
      </trkpt>
      <trkpt lat="42.96251" lon="-0.13623">
        <ele>1450</ele>
        <time>2011-03-05T09:10:53Z</time>
      </trkpt>
      <trkpt lat="42.96232" lon="-0.13642">
        <ele>1456</ele>
        <time>2011-03-05T09:11:26Z</time>
      </trkpt>
      <trkpt lat="42.96217" lon="-0.13663">
        <ele>1462</ele>
        <time>2011-03-05T09:11:58Z</time>
      </trkpt>
      <trkpt lat="42.9621" lon="-0.13652">
        <ele>1465</ele>
        <time>2011-03-05T09:12:13Z</time>
      </trkpt>
      <trkpt lat="42.96205" lon="-0.1365">
        <ele>1467</ele>
        <time>2011-03-05T09:12:23Z</time>
      </trkpt>
      <trkpt lat="42.96202" lon="-0.13651">
        <ele>1469</ele>
        <time>2011-03-05T09:12:39Z</time>
      </trkpt>
      <trkpt lat="42.96196" lon="-0.13648">
        <ele>1470</ele>
        <time>2011-03-05T09:12:53Z</time>
      </trkpt>
      <trkpt lat="42.96191" lon="-0.13651">
        <ele>1471</ele>
        <time>2011-03-05T09:13:03Z</time>
      </trkpt>
      <trkpt lat="42.96177" lon="-0.1366">
        <ele>1476</ele>
        <time>2011-03-05T09:13:34Z</time>
      </trkpt>
      <trkpt lat="42.96159" lon="-0.13677">
        <ele>1483</ele>
        <time>2011-03-05T09:14:09Z</time>
      </trkpt>
      <trkpt lat="42.96143" lon="-0.13689">
        <ele>1488</ele>
        <time>2011-03-05T09:14:40Z</time>
      </trkpt>
      <trkpt lat="42.96139" lon="-0.13692">
        <ele>1489</ele>
        <time>2011-03-05T09:14:47Z</time>
      </trkpt>
      <trkpt lat="42.9613" lon="-0.13691">
        <ele>1492</ele>
        <time>2011-03-05T09:15:09Z</time>
      </trkpt>
      <trkpt lat="42.96107" lon="-0.13686">
        <ele>1498</ele>
        <time>2011-03-05T09:15:44Z</time>
      </trkpt>
      <trkpt lat="42.96102" lon="-0.13687">
        <ele>1499</ele>
        <time>2011-03-05T09:15:49Z</time>
      </trkpt>
      <trkpt lat="42.96096" lon="-0.13682">
        <ele>1500</ele>
        <time>2011-03-05T09:16:34Z</time>
      </trkpt>
      <trkpt lat="42.96069" lon="-0.13671">
        <ele>1506</ele>
        <time>2011-03-05T09:17:07Z</time>
      </trkpt>
      <trkpt lat="42.96064" lon="-0.13672">
        <ele>1507</ele>
        <time>2011-03-05T09:18:11Z</time>
      </trkpt>
      <trkpt lat="42.96063" lon="-0.13676">
        <ele>1508</ele>
        <time>2011-03-05T09:18:56Z</time>
      </trkpt>
      <trkpt lat="42.96067" lon="-0.13677">
        <ele>1509</ele>
        <time>2011-03-05T09:19:59Z</time>
      </trkpt>
      <trkpt lat="42.96066" lon="-0.13671">
        <ele>1510</ele>
        <time>2011-03-05T09:20:24Z</time>
      </trkpt>
      <trkpt lat="42.96061" lon="-0.1367">
        <ele>1511</ele>
        <time>2011-03-05T09:20:37Z</time>
      </trkpt>
      <trkpt lat="42.9604" lon="-0.13674">
        <ele>1513</ele>
        <time>2011-03-05T09:21:09Z</time>
      </trkpt>
      <trkpt lat="42.96023" lon="-0.13669">
        <ele>1514</ele>
        <time>2011-03-05T09:21:34Z</time>
      </trkpt>
      <trkpt lat="42.96011" lon="-0.13673">
        <ele>1514</ele>
        <time>2011-03-05T09:21:57Z</time>
      </trkpt>
      <trkpt lat="42.96005" lon="-0.13664">
        <ele>1516</ele>
        <time>2011-03-05T09:22:32Z</time>
      </trkpt>
      <trkpt lat="42.95996" lon="-0.13666">
        <ele>1517</ele>
        <time>2011-03-05T09:22:43Z</time>
      </trkpt>
      <trkpt lat="42.95974" lon="-0.13665">
        <ele>1521</ele>
        <time>2011-03-05T09:23:20Z</time>
      </trkpt>
      <trkpt lat="42.95961" lon="-0.13661">
        <ele>1525</ele>
        <time>2011-03-05T09:23:52Z</time>
      </trkpt>
      <trkpt lat="42.95955" lon="-0.1366">
        <ele>1528</ele>
        <time>2011-03-05T09:24:16Z</time>
      </trkpt>
      <trkpt lat="42.95951" lon="-0.13669">
        <ele>1530</ele>
        <time>2011-03-05T09:24:32Z</time>
      </trkpt>
      <trkpt lat="42.95946" lon="-0.13672">
        <ele>1531</ele>
        <time>2011-03-05T09:24:41Z</time>
      </trkpt>
      <trkpt lat="42.95927" lon="-0.13673">
        <ele>1535</ele>
        <time>2011-03-05T09:25:12Z</time>
      </trkpt>
      <trkpt lat="42.95919" lon="-0.13677">
        <ele>1537</ele>
        <time>2011-03-05T09:25:29Z</time>
      </trkpt>
      <trkpt lat="42.95911" lon="-0.13682">
        <ele>1541</ele>
        <time>2011-03-05T09:25:53Z</time>
      </trkpt>
      <trkpt lat="42.95906" lon="-0.13675">
        <ele>1547</ele>
        <time>2011-03-05T09:26:45Z</time>
      </trkpt>
      <trkpt lat="42.95885" lon="-0.13684">
        <ele>1549</ele>
        <time>2011-03-05T09:27:17Z</time>
      </trkpt>
      <trkpt lat="42.95882" lon="-0.1369">
        <ele>1550</ele>
        <time>2011-03-05T09:27:23Z</time>
      </trkpt>
      <trkpt lat="42.95876" lon="-0.13688">
        <ele>1550</ele>
        <time>2011-03-05T09:27:36Z</time>
      </trkpt>
      <trkpt lat="42.95862" lon="-0.13691">
        <ele>1552</ele>
        <time>2011-03-05T09:28:12Z</time>
      </trkpt>
      <trkpt lat="42.95858" lon="-0.1369">
        <ele>1552</ele>
        <time>2011-03-05T09:28:14Z</time>
      </trkpt>
      <trkpt lat="42.9583" lon="-0.13701">
        <ele>1556</ele>
        <time>2011-03-05T09:29:10Z</time>
      </trkpt>
      <trkpt lat="42.95826" lon="-0.1371">
        <ele>1558</ele>
        <time>2011-03-05T09:29:27Z</time>
      </trkpt>
      <trkpt lat="42.95817" lon="-0.13709">
        <ele>1558</ele>
        <time>2011-03-05T09:29:41Z</time>
      </trkpt>
      <trkpt lat="42.95803" lon="-0.13713">
        <ele>1561</ele>
        <time>2011-03-05T09:30:13Z</time>
      </trkpt>
      <trkpt lat="42.95781" lon="-0.13728">
        <ele>1565</ele>
        <time>2011-03-05T09:30:52Z</time>
      </trkpt>
      <trkpt lat="42.95769" lon="-0.13745">
        <ele>1571</ele>
        <time>2011-03-05T09:31:23Z</time>
      </trkpt>
      <trkpt lat="42.95764" lon="-0.13749">
        <ele>1575</ele>
        <time>2011-03-05T09:31:36Z</time>
      </trkpt>
      <trkpt lat="42.9576" lon="-0.13746">
        <ele>1577</ele>
        <time>2011-03-05T09:31:47Z</time>
      </trkpt>
      <trkpt lat="42.95758" lon="-0.13749">
        <ele>1580</ele>
        <time>2011-03-05T09:31:58Z</time>
      </trkpt>
      <trkpt lat="42.95757" lon="-0.13752">
        <ele>1581</ele>
        <time>2011-03-05T09:32:04Z</time>
      </trkpt>
      <trkpt lat="42.95756" lon="-0.1376">
        <ele>1583</ele>
        <time>2011-03-05T09:32:18Z</time>
      </trkpt>
      <trkpt lat="42.9575" lon="-0.13766">
        <ele>1586</ele>
        <time>2011-03-05T09:32:34Z</time>
      </trkpt>
      <trkpt lat="42.95746" lon="-0.13765">
        <ele>1589</ele>
        <time>2011-03-05T09:32:58Z</time>
      </trkpt>
      <trkpt lat="42.95742" lon="-0.1377">
        <ele>1591</ele>
        <time>2011-03-05T09:33:14Z</time>
      </trkpt>
      <trkpt lat="42.95735" lon="-0.13775">
        <ele>1593</ele>
        <time>2011-03-05T09:33:33Z</time>
      </trkpt>
      <trkpt lat="42.9573" lon="-0.13774">
        <ele>1595</ele>
        <time>2011-03-05T09:33:41Z</time>
      </trkpt>
      <trkpt lat="42.95726" lon="-0.13766">
        <ele>1597</ele>
        <time>2011-03-05T09:33:54Z</time>
      </trkpt>
      <trkpt lat="42.95712" lon="-0.13741">
        <ele>1602</ele>
        <time>2011-03-05T09:34:37Z</time>
      </trkpt>
      <trkpt lat="42.95707" lon="-0.13732">
        <ele>1603</ele>
        <time>2011-03-05T09:35:00Z</time>
      </trkpt>
      <trkpt lat="42.95722" lon="-0.13733">
        <ele>1606</ele>
        <time>2011-03-05T09:35:37Z</time>
      </trkpt>
      <trkpt lat="42.9572" lon="-0.13737">
        <ele>1611</ele>
        <time>2011-03-05T09:37:20Z</time>
      </trkpt>
      <trkpt lat="42.9571" lon="-0.13741">
        <ele>1613</ele>
        <time>2011-03-05T09:37:34Z</time>
      </trkpt>
      <trkpt lat="42.95708" lon="-0.13744">
        <ele>1614</ele>
        <time>2011-03-05T09:37:41Z</time>
      </trkpt>
      <trkpt lat="42.95709" lon="-0.13748">
        <ele>1615</ele>
        <time>2011-03-05T09:37:53Z</time>
      </trkpt>
      <trkpt lat="42.95705" lon="-0.1375">
        <ele>1617</ele>
        <time>2011-03-05T09:38:10Z</time>
      </trkpt>
      <trkpt lat="42.95691" lon="-0.13727">
        <ele>1621</ele>
        <time>2011-03-05T09:38:50Z</time>
      </trkpt>
      <trkpt lat="42.95686" lon="-0.13722">
        <ele>1622</ele>
        <time>2011-03-05T09:39:00Z</time>
      </trkpt>
      <trkpt lat="42.95687" lon="-0.13716">
        <ele>1623</ele>
        <time>2011-03-05T09:39:14Z</time>
      </trkpt>
      <trkpt lat="42.95678" lon="-0.13709">
        <ele>1625</ele>
        <time>2011-03-05T09:39:34Z</time>
      </trkpt>
      <trkpt lat="42.95681" lon="-0.13711">
        <ele>1627</ele>
        <time>2011-03-05T09:39:53Z</time>
      </trkpt>
      <trkpt lat="42.95678" lon="-0.13717">
        <ele>1628</ele>
        <time>2011-03-05T09:40:02Z</time>
      </trkpt>
      <trkpt lat="42.95671" lon="-0.13727">
        <ele>1630</ele>
        <time>2011-03-05T09:40:18Z</time>
      </trkpt>
      <trkpt lat="42.95651" lon="-0.1373">
        <ele>1636</ele>
        <time>2011-03-05T09:40:50Z</time>
      </trkpt>
      <trkpt lat="42.95631" lon="-0.13721">
        <ele>1640</ele>
        <time>2011-03-05T09:41:24Z</time>
      </trkpt>
      <trkpt lat="42.95627" lon="-0.13718">
        <ele>1641</ele>
        <time>2011-03-05T09:42:01Z</time>
      </trkpt>
      <trkpt lat="42.95623" lon="-0.13717">
        <ele>1648</ele>
        <time>2011-03-05T09:45:43Z</time>
      </trkpt>
      <trkpt lat="42.95625" lon="-0.13713">
        <ele>1651</ele>
        <time>2011-03-05T09:46:42Z</time>
      </trkpt>
      <trkpt lat="42.95621" lon="-0.1371">
        <ele>1652</ele>
        <time>2011-03-05T09:46:51Z</time>
      </trkpt>
      <trkpt lat="42.95617" lon="-0.13705">
        <ele>1653</ele>
        <time>2011-03-05T09:47:09Z</time>
      </trkpt>
      <trkpt lat="42.956" lon="-0.13689">
        <ele>1655</ele>
        <time>2011-03-05T09:47:40Z</time>
      </trkpt>
      <trkpt lat="42.95587" lon="-0.13675">
        <ele>1655</ele>
        <time>2011-03-05T09:47:59Z</time>
      </trkpt>
      <trkpt lat="42.95582" lon="-0.13674">
        <ele>1655</ele>
        <time>2011-03-05T09:48:04Z</time>
      </trkpt>
      <trkpt lat="42.95557" lon="-0.13684">
        <ele>1657</ele>
        <time>2011-03-05T09:48:36Z</time>
      </trkpt>
      <trkpt lat="42.95533" lon="-0.13688">
        <ele>1660</ele>
        <time>2011-03-05T09:49:07Z</time>
      </trkpt>
      <trkpt lat="42.9553" lon="-0.13683">
        <ele>1660</ele>
        <time>2011-03-05T09:49:14Z</time>
      </trkpt>
      <trkpt lat="42.95514" lon="-0.13656">
        <ele>1662</ele>
        <time>2011-03-05T09:49:47Z</time>
      </trkpt>
      <trkpt lat="42.95508" lon="-0.13645">
        <ele>1663</ele>
        <time>2011-03-05T09:49:59Z</time>
      </trkpt>
      <trkpt lat="42.95503" lon="-0.13643">
        <ele>1663</ele>
        <time>2011-03-05T09:50:05Z</time>
      </trkpt>
      <trkpt lat="42.95476" lon="-0.13651">
        <ele>1666</ele>
        <time>2011-03-05T09:50:41Z</time>
      </trkpt>
      <trkpt lat="42.95451" lon="-0.13658">
        <ele>1668</ele>
        <time>2011-03-05T09:51:16Z</time>
      </trkpt>
      <trkpt lat="42.95427" lon="-0.13653">
        <ele>1671</ele>
        <time>2011-03-05T09:51:49Z</time>
      </trkpt>
      <trkpt lat="42.9541" lon="-0.13645">
        <ele>1674</ele>
        <time>2011-03-05T09:52:16Z</time>
      </trkpt>
      <trkpt lat="42.95395" lon="-0.13616">
        <ele>1677</ele>
        <time>2011-03-05T09:53:00Z</time>
      </trkpt>
      <trkpt lat="42.95392" lon="-0.13604">
        <ele>1677</ele>
        <time>2011-03-05T09:53:26Z</time>
      </trkpt>
      <trkpt lat="42.95388" lon="-0.13599">
        <ele>1679</ele>
        <time>2011-03-05T09:54:02Z</time>
      </trkpt>
      <trkpt lat="42.95371" lon="-0.13586">
        <ele>1684</ele>
        <time>2011-03-05T09:54:28Z</time>
      </trkpt>
      <trkpt lat="42.95362" lon="-0.13565">
        <ele>1687</ele>
        <time>2011-03-05T09:54:50Z</time>
      </trkpt>
      <trkpt lat="42.9534" lon="-0.13552">
        <ele>1690</ele>
        <time>2011-03-05T09:55:14Z</time>
      </trkpt>
      <trkpt lat="42.95336" lon="-0.13552">
        <ele>1691</ele>
        <time>2011-03-05T09:55:19Z</time>
      </trkpt>
      <trkpt lat="42.95315" lon="-0.13531">
        <ele>1694</ele>
        <time>2011-03-05T09:55:51Z</time>
      </trkpt>
      <trkpt lat="42.95295" lon="-0.13513">
        <ele>1697</ele>
        <time>2011-03-05T09:56:18Z</time>
      </trkpt>
      <trkpt lat="42.95292" lon="-0.135">
        <ele>1697</ele>
        <time>2011-03-05T09:56:28Z</time>
      </trkpt>
      <trkpt lat="42.95264" lon="-0.13458">
        <ele>1701</ele>
        <time>2011-03-05T09:57:04Z</time>
      </trkpt>
      <trkpt lat="42.95239" lon="-0.13424">
        <ele>1704</ele>
        <time>2011-03-05T09:57:39Z</time>
      </trkpt>
      <trkpt lat="42.95211" lon="-0.13395">
        <ele>1707</ele>
        <time>2011-03-05T09:58:21Z</time>
      </trkpt>
      <trkpt lat="42.95186" lon="-0.13377">
        <ele>1708</ele>
        <time>2011-03-05T09:58:57Z</time>
      </trkpt>
      <trkpt lat="42.95163" lon="-0.13331">
        <ele>1711</ele>
        <time>2011-03-05T09:59:34Z</time>
      </trkpt>
      <trkpt lat="42.95143" lon="-0.13291">
        <ele>1713</ele>
        <time>2011-03-05T10:00:12Z</time>
      </trkpt>
      <trkpt lat="42.9512" lon="-0.13264">
        <ele>1715</ele>
        <time>2011-03-05T10:00:47Z</time>
      </trkpt>
      <trkpt lat="42.95107" lon="-0.13256">
        <ele>1715</ele>
        <time>2011-03-05T10:01:08Z</time>
      </trkpt>
      <trkpt lat="42.95101" lon="-0.13246">
        <ele>1715</ele>
        <time>2011-03-05T10:01:16Z</time>
      </trkpt>
      <trkpt lat="42.95082" lon="-0.13208">
        <ele>1716</ele>
        <time>2011-03-05T10:01:48Z</time>
      </trkpt>
      <trkpt lat="42.95059" lon="-0.13177">
        <ele>1718</ele>
        <time>2011-03-05T10:02:20Z</time>
      </trkpt>
      <trkpt lat="42.95032" lon="-0.13157">
        <ele>1720</ele>
        <time>2011-03-05T10:03:00Z</time>
      </trkpt>
      <trkpt lat="42.95" lon="-0.13143">
        <ele>1723</ele>
        <time>2011-03-05T10:03:40Z</time>
      </trkpt>
      <trkpt lat="42.94973" lon="-0.1313">
        <ele>1725</ele>
        <time>2011-03-05T10:04:14Z</time>
      </trkpt>
      <trkpt lat="42.94946" lon="-0.13121">
        <ele>1726</ele>
        <time>2011-03-05T10:04:46Z</time>
      </trkpt>
      <trkpt lat="42.94941" lon="-0.13121">
        <ele>1726</ele>
        <time>2011-03-05T10:04:54Z</time>
      </trkpt>
      <trkpt lat="42.94919" lon="-0.13113">
        <ele>1726</ele>
        <time>2011-03-05T10:05:26Z</time>
      </trkpt>
      <trkpt lat="42.94922" lon="-0.13107">
        <ele>1726</ele>
        <time>2011-03-05T10:06:07Z</time>
      </trkpt>
      <trkpt lat="42.94917" lon="-0.13098">
        <ele>1728</ele>
        <time>2011-03-05T10:06:48Z</time>
      </trkpt>
      <trkpt lat="42.94896" lon="-0.13084">
        <ele>1728</ele>
        <time>2011-03-05T10:07:22Z</time>
      </trkpt>
      <trkpt lat="42.94873" lon="-0.13054">
        <ele>1729</ele>
        <time>2011-03-05T10:08:03Z</time>
      </trkpt>
      <trkpt lat="42.94856" lon="-0.13021">
        <ele>1729</ele>
        <time>2011-03-05T10:08:34Z</time>
      </trkpt>
      <trkpt lat="42.94852" lon="-0.13012">
        <ele>1730</ele>
        <time>2011-03-05T10:08:42Z</time>
      </trkpt>
      <trkpt lat="42.94853" lon="-0.13005">
        <ele>1730</ele>
        <time>2011-03-05T10:08:48Z</time>
      </trkpt>
      <trkpt lat="42.9485" lon="-0.12998">
        <ele>1730</ele>
        <time>2011-03-05T10:08:53Z</time>
      </trkpt>
      <trkpt lat="42.94831" lon="-0.1296">
        <ele>1731</ele>
        <time>2011-03-05T10:09:27Z</time>
      </trkpt>
      <trkpt lat="42.94824" lon="-0.12933">
        <ele>1732</ele>
        <time>2011-03-05T10:09:49Z</time>
      </trkpt>
      <trkpt lat="42.94805" lon="-0.12903">
        <ele>1739</ele>
        <time>2011-03-05T10:10:23Z</time>
      </trkpt>
      <trkpt lat="42.94785" lon="-0.12879">
        <ele>1749</ele>
        <time>2011-03-05T10:10:54Z</time>
      </trkpt>
      <trkpt lat="42.94758" lon="-0.1286">
        <ele>1758</ele>
        <time>2011-03-05T10:11:25Z</time>
      </trkpt>
      <trkpt lat="42.94732" lon="-0.12854">
        <ele>1766</ele>
        <time>2011-03-05T10:12:02Z</time>
      </trkpt>
      <trkpt lat="42.94711" lon="-0.12853">
        <ele>1772</ele>
        <time>2011-03-05T10:12:39Z</time>
      </trkpt>
      <trkpt lat="42.94687" lon="-0.12859">
        <ele>1777</ele>
        <time>2011-03-05T10:13:14Z</time>
      </trkpt>
      <trkpt lat="42.94677" lon="-0.12861">
        <ele>1778</ele>
        <time>2011-03-05T10:13:46Z</time>
      </trkpt>
      <trkpt lat="42.94663" lon="-0.12866">
        <ele>1782</ele>
        <time>2011-03-05T10:14:17Z</time>
      </trkpt>
      <trkpt lat="42.94655" lon="-0.12869">
        <ele>1784</ele>
        <time>2011-03-05T10:14:30Z</time>
      </trkpt>
      <trkpt lat="42.94654" lon="-0.12874">
        <ele>1786</ele>
        <time>2011-03-05T10:15:01Z</time>
      </trkpt>
      <trkpt lat="42.94652" lon="-0.1288">
        <ele>1787</ele>
        <time>2011-03-05T10:15:14Z</time>
      </trkpt>
      <trkpt lat="42.94645" lon="-0.12883">
        <ele>1789</ele>
        <time>2011-03-05T10:15:22Z</time>
      </trkpt>
      <trkpt lat="42.94619" lon="-0.12887">
        <ele>1795</ele>
        <time>2011-03-05T10:15:57Z</time>
      </trkpt>
      <trkpt lat="42.94598" lon="-0.1288">
        <ele>1800</ele>
        <time>2011-03-05T10:16:31Z</time>
      </trkpt>
      <trkpt lat="42.94587" lon="-0.12877">
        <ele>1802</ele>
        <time>2011-03-05T10:17:09Z</time>
      </trkpt>
      <trkpt lat="42.94578" lon="-0.1288">
        <ele>1805</ele>
        <time>2011-03-05T10:17:39Z</time>
      </trkpt>
      <trkpt lat="42.94561" lon="-0.1287">
        <ele>1807</ele>
        <time>2011-03-05T10:17:57Z</time>
      </trkpt>
      <trkpt lat="42.94536" lon="-0.12872">
        <ele>1811</ele>
        <time>2011-03-05T10:18:28Z</time>
      </trkpt>
      <trkpt lat="42.94512" lon="-0.12872">
        <ele>1816</ele>
        <time>2011-03-05T10:19:02Z</time>
      </trkpt>
      <trkpt lat="42.94507" lon="-0.12874">
        <ele>1818</ele>
        <time>2011-03-05T10:19:13Z</time>
      </trkpt>
      <trkpt lat="42.94487" lon="-0.12869">
        <ele>1821</ele>
        <time>2011-03-05T10:19:46Z</time>
      </trkpt>
      <trkpt lat="42.94462" lon="-0.12869">
        <ele>1826</ele>
        <time>2011-03-05T10:20:22Z</time>
      </trkpt>
      <trkpt lat="42.94434" lon="-0.12866">
        <ele>1829</ele>
        <time>2011-03-05T10:21:05Z</time>
      </trkpt>
      <trkpt lat="42.94413" lon="-0.12863">
        <ele>1830</ele>
        <time>2011-03-05T10:21:28Z</time>
      </trkpt>
      <trkpt lat="42.94396" lon="-0.12861">
        <ele>1834</ele>
        <time>2011-03-05T10:21:56Z</time>
      </trkpt>
      <trkpt lat="42.94389" lon="-0.12854">
        <ele>1835</ele>
        <time>2011-03-05T10:22:08Z</time>
      </trkpt>
      <trkpt lat="42.94385" lon="-0.12853">
        <ele>1835</ele>
        <time>2011-03-05T10:22:17Z</time>
      </trkpt>
      <trkpt lat="42.94363" lon="-0.12823">
        <ele>1836</ele>
        <time>2011-03-05T10:22:52Z</time>
      </trkpt>
      <trkpt lat="42.94341" lon="-0.128">
        <ele>1836</ele>
        <time>2011-03-05T10:23:29Z</time>
      </trkpt>
      <trkpt lat="42.94328" lon="-0.12787">
        <ele>1836</ele>
        <time>2011-03-05T10:23:52Z</time>
      </trkpt>
      <trkpt lat="42.94322" lon="-0.12773">
        <ele>1836</ele>
        <time>2011-03-05T10:24:10Z</time>
      </trkpt>
      <trkpt lat="42.943" lon="-0.12754">
        <ele>1839</ele>
        <time>2011-03-05T10:24:44Z</time>
      </trkpt>
      <trkpt lat="42.94289" lon="-0.12741">
        <ele>1841</ele>
        <time>2011-03-05T10:25:07Z</time>
      </trkpt>
      <trkpt lat="42.94288" lon="-0.12734">
        <ele>1842</ele>
        <time>2011-03-05T10:25:19Z</time>
      </trkpt>
      <trkpt lat="42.94285" lon="-0.12732">
        <ele>1842</ele>
        <time>2011-03-05T10:25:53Z</time>
      </trkpt>
      <trkpt lat="42.9428" lon="-0.1273">
        <ele>1843</ele>
        <time>2011-03-05T10:26:07Z</time>
      </trkpt>
      <trkpt lat="42.9426" lon="-0.12715">
        <ele>1849</ele>
        <time>2011-03-05T10:26:40Z</time>
      </trkpt>
      <trkpt lat="42.94232" lon="-0.12693">
        <ele>1855</ele>
        <time>2011-03-05T10:27:29Z</time>
      </trkpt>
      <trkpt lat="42.94227" lon="-0.12693">
        <ele>1855</ele>
        <time>2011-03-05T10:27:31Z</time>
      </trkpt>
      <trkpt lat="42.9421" lon="-0.12685">
        <ele>1858</ele>
        <time>2011-03-05T10:27:57Z</time>
      </trkpt>
      <trkpt lat="42.94184" lon="-0.12691">
        <ele>1859</ele>
        <time>2011-03-05T10:28:26Z</time>
      </trkpt>
      <trkpt lat="42.94179" lon="-0.12697">
        <ele>1859</ele>
        <time>2011-03-05T10:28:35Z</time>
      </trkpt>
      <trkpt lat="42.94162" lon="-0.12724">
        <ele>1858</ele>
        <time>2011-03-05T10:29:06Z</time>
      </trkpt>
      <trkpt lat="42.94149" lon="-0.12738">
        <ele>1858</ele>
        <time>2011-03-05T10:29:26Z</time>
      </trkpt>
      <trkpt lat="42.94142" lon="-0.12755">
        <ele>1858</ele>
        <time>2011-03-05T10:29:48Z</time>
      </trkpt>
      <trkpt lat="42.94133" lon="-0.12751">
        <ele>1858</ele>
        <time>2011-03-05T10:30:30Z</time>
      </trkpt>
      <trkpt lat="42.94136" lon="-0.12715">
        <ele>1859</ele>
        <time>2011-03-05T10:31:08Z</time>
      </trkpt>
      <trkpt lat="42.94134" lon="-0.12695">
        <ele>1860</ele>
        <time>2011-03-05T10:31:33Z</time>
      </trkpt>
      <trkpt lat="42.94132" lon="-0.12691">
        <ele>1860</ele>
        <time>2011-03-05T10:31:40Z</time>
      </trkpt>
      <trkpt lat="42.94127" lon="-0.12688">
        <ele>1860</ele>
        <time>2011-03-05T10:31:55Z</time>
      </trkpt>
      <trkpt lat="42.94123" lon="-0.12695">
        <ele>1861</ele>
        <time>2011-03-05T10:32:05Z</time>
      </trkpt>
      <trkpt lat="42.94111" lon="-0.12728">
        <ele>1862</ele>
        <time>2011-03-05T10:32:39Z</time>
      </trkpt>
      <trkpt lat="42.94096" lon="-0.12756">
        <ele>1868</ele>
        <time>2011-03-05T10:33:14Z</time>
      </trkpt>
      <trkpt lat="42.94096" lon="-0.12749">
        <ele>1872</ele>
        <time>2011-03-05T10:33:40Z</time>
      </trkpt>
      <trkpt lat="42.94097" lon="-0.12746">
        <ele>1875</ele>
        <time>2011-03-05T10:34:06Z</time>
      </trkpt>
      <trkpt lat="42.94095" lon="-0.12732">
        <ele>1881</ele>
        <time>2011-03-05T10:34:56Z</time>
      </trkpt>
      <trkpt lat="42.94094" lon="-0.12725">
        <ele>1883</ele>
        <time>2011-03-05T10:35:04Z</time>
      </trkpt>
      <trkpt lat="42.94093" lon="-0.12724">
        <ele>1887</ele>
        <time>2011-03-05T10:35:23Z</time>
      </trkpt>
      <trkpt lat="42.94078" lon="-0.12743">
        <ele>1893</ele>
        <time>2011-03-05T10:35:56Z</time>
      </trkpt>
      <trkpt lat="42.94061" lon="-0.12774">
        <ele>1896</ele>
        <time>2011-03-05T10:36:31Z</time>
      </trkpt>
      <trkpt lat="42.94057" lon="-0.12789">
        <ele>1897</ele>
        <time>2011-03-05T10:36:49Z</time>
      </trkpt>
      <trkpt lat="42.9406" lon="-0.12794">
        <ele>1901</ele>
        <time>2011-03-05T10:37:08Z</time>
      </trkpt>
      <trkpt lat="42.94055" lon="-0.12798">
        <ele>1904</ele>
        <time>2011-03-05T10:37:17Z</time>
      </trkpt>
      <trkpt lat="42.94041" lon="-0.12797">
        <ele>1908</ele>
        <time>2011-03-05T10:37:36Z</time>
      </trkpt>
      <trkpt lat="42.94037" lon="-0.12797">
        <ele>1909</ele>
        <time>2011-03-05T10:37:49Z</time>
      </trkpt>
      <trkpt lat="42.94036" lon="-0.12792">
        <ele>1922</ele>
        <time>2011-03-05T10:42:25Z</time>
      </trkpt>
      <trkpt lat="42.94036" lon="-0.12783">
        <ele>1923</ele>
        <time>2011-03-05T10:42:36Z</time>
      </trkpt>
      <trkpt lat="42.94032" lon="-0.12785">
        <ele>1923</ele>
        <time>2011-03-05T10:42:43Z</time>
      </trkpt>
      <trkpt lat="42.94033" lon="-0.12773">
        <ele>1925</ele>
        <time>2011-03-05T10:43:08Z</time>
      </trkpt>
      <trkpt lat="42.9403" lon="-0.1277">
        <ele>1926</ele>
        <time>2011-03-05T10:43:20Z</time>
      </trkpt>
      <trkpt lat="42.94032" lon="-0.12761">
        <ele>1928</ele>
        <time>2011-03-05T10:43:35Z</time>
      </trkpt>
      <trkpt lat="42.94027" lon="-0.12757">
        <ele>1930</ele>
        <time>2011-03-05T10:43:49Z</time>
      </trkpt>
      <trkpt lat="42.94023" lon="-0.12752">
        <ele>1930</ele>
        <time>2011-03-05T10:43:56Z</time>
      </trkpt>
      <trkpt lat="42.94011" lon="-0.1275">
        <ele>1932</ele>
        <time>2011-03-05T10:44:16Z</time>
      </trkpt>
      <trkpt lat="42.94011" lon="-0.12744">
        <ele>1936</ele>
        <time>2011-03-05T10:44:41Z</time>
      </trkpt>
      <trkpt lat="42.94014" lon="-0.12737">
        <ele>1938</ele>
        <time>2011-03-05T10:44:52Z</time>
      </trkpt>
      <trkpt lat="42.94014" lon="-0.12731">
        <ele>1939</ele>
        <time>2011-03-05T10:45:02Z</time>
      </trkpt>
      <trkpt lat="42.94008" lon="-0.12731">
        <ele>1942</ele>
        <time>2011-03-05T10:45:17Z</time>
      </trkpt>
      <trkpt lat="42.93987" lon="-0.12728">
        <ele>1946</ele>
        <time>2011-03-05T10:45:51Z</time>
      </trkpt>
      <trkpt lat="42.93964" lon="-0.12716">
        <ele>1948</ele>
        <time>2011-03-05T10:46:24Z</time>
      </trkpt>
      <trkpt lat="42.9396" lon="-0.12712">
        <ele>1948</ele>
        <time>2011-03-05T10:46:31Z</time>
      </trkpt>
      <trkpt lat="42.93941" lon="-0.12712">
        <ele>1950</ele>
        <time>2011-03-05T10:46:55Z</time>
      </trkpt>
      <trkpt lat="42.93926" lon="-0.12717">
        <ele>1953</ele>
        <time>2011-03-05T10:47:20Z</time>
      </trkpt>
      <trkpt lat="42.93907" lon="-0.12735">
        <ele>1956</ele>
        <time>2011-03-05T10:47:52Z</time>
      </trkpt>
      <trkpt lat="42.93885" lon="-0.12744">
        <ele>1958</ele>
        <time>2011-03-05T10:48:26Z</time>
      </trkpt>
      <trkpt lat="42.93866" lon="-0.1274">
        <ele>1961</ele>
        <time>2011-03-05T10:48:53Z</time>
      </trkpt>
      <trkpt lat="42.93848" lon="-0.12751">
        <ele>1965</ele>
        <time>2011-03-05T10:49:24Z</time>
      </trkpt>
      <trkpt lat="42.93832" lon="-0.12776">
        <ele>1968</ele>
        <time>2011-03-05T10:49:54Z</time>
      </trkpt>
      <trkpt lat="42.93819" lon="-0.12806">
        <ele>1971</ele>
        <time>2011-03-05T10:50:29Z</time>
      </trkpt>
      <trkpt lat="42.93816" lon="-0.12812">
        <ele>1972</ele>
        <time>2011-03-05T10:50:38Z</time>
      </trkpt>
      <trkpt lat="42.93816" lon="-0.12818">
        <ele>1973</ele>
        <time>2011-03-05T10:50:46Z</time>
      </trkpt>
      <trkpt lat="42.93805" lon="-0.12844">
        <ele>1977</ele>
        <time>2011-03-05T10:51:17Z</time>
      </trkpt>
      <trkpt lat="42.93794" lon="-0.12859">
        <ele>1979</ele>
        <time>2011-03-05T10:51:37Z</time>
      </trkpt>
      <trkpt lat="42.93792" lon="-0.12852">
        <ele>1980</ele>
        <time>2011-03-05T10:51:55Z</time>
      </trkpt>
      <trkpt lat="42.9379" lon="-0.12855">
        <ele>1982</ele>
        <time>2011-03-05T10:52:19Z</time>
      </trkpt>
      <trkpt lat="42.93791" lon="-0.12859">
        <ele>1982</ele>
        <time>2011-03-05T10:52:25Z</time>
      </trkpt>
      <trkpt lat="42.93786" lon="-0.12879">
        <ele>1986</ele>
        <time>2011-03-05T10:52:49Z</time>
      </trkpt>
      <trkpt lat="42.93774" lon="-0.12905">
        <ele>1993</ele>
        <time>2011-03-05T10:53:25Z</time>
      </trkpt>
      <trkpt lat="42.93774" lon="-0.12898">
        <ele>1995</ele>
        <time>2011-03-05T10:53:38Z</time>
      </trkpt>
      <trkpt lat="42.93772" lon="-0.12891">
        <ele>1997</ele>
        <time>2011-03-05T10:53:47Z</time>
      </trkpt>
      <trkpt lat="42.93769" lon="-0.12886">
        <ele>1998</ele>
        <time>2011-03-05T10:53:53Z</time>
      </trkpt>
      <trkpt lat="42.93765" lon="-0.12868">
        <ele>2001</ele>
        <time>2011-03-05T10:54:21Z</time>
      </trkpt>
      <trkpt lat="42.93764" lon="-0.12874">
        <ele>2002</ele>
        <time>2011-03-05T10:54:30Z</time>
      </trkpt>
      <trkpt lat="42.93752" lon="-0.129">
        <ele>2006</ele>
        <time>2011-03-05T10:55:05Z</time>
      </trkpt>
      <trkpt lat="42.93749" lon="-0.12896">
        <ele>2009</ele>
        <time>2011-03-05T10:55:25Z</time>
      </trkpt>
      <trkpt lat="42.9375" lon="-0.1289">
        <ele>2011</ele>
        <time>2011-03-05T10:55:32Z</time>
      </trkpt>
      <trkpt lat="42.93747" lon="-0.12859">
        <ele>2015</ele>
        <time>2011-03-05T10:56:06Z</time>
      </trkpt>
      <trkpt lat="42.93739" lon="-0.12833">
        <ele>2019</ele>
        <time>2011-03-05T10:56:42Z</time>
      </trkpt>
      <trkpt lat="42.93738" lon="-0.12816">
        <ele>2022</ele>
        <time>2011-03-05T10:57:07Z</time>
      </trkpt>
      <trkpt lat="42.93733" lon="-0.12803">
        <ele>2025</ele>
        <time>2011-03-05T10:57:29Z</time>
      </trkpt>
      <trkpt lat="42.93731" lon="-0.12812">
        <ele>2027</ele>
        <time>2011-03-05T10:57:47Z</time>
      </trkpt>
      <trkpt lat="42.93729" lon="-0.12815">
        <ele>2029</ele>
        <time>2011-03-05T10:57:57Z</time>
      </trkpt>
      <trkpt lat="42.93728" lon="-0.12823">
        <ele>2030</ele>
        <time>2011-03-05T10:58:04Z</time>
      </trkpt>
      <trkpt lat="42.93726" lon="-0.12827">
        <ele>2031</ele>
        <time>2011-03-05T10:58:17Z</time>
      </trkpt>
      <trkpt lat="42.93722" lon="-0.12825">
        <ele>2031</ele>
        <time>2011-03-05T10:58:39Z</time>
      </trkpt>
      <trkpt lat="42.93725" lon="-0.12823">
        <ele>2032</ele>
        <time>2011-03-05T10:59:32Z</time>
      </trkpt>
      <trkpt lat="42.93722" lon="-0.12817">
        <ele>2033</ele>
        <time>2011-03-05T10:59:39Z</time>
      </trkpt>
      <trkpt lat="42.93712" lon="-0.12813">
        <ele>2033</ele>
        <time>2011-03-05T10:59:50Z</time>
      </trkpt>
      <trkpt lat="42.93694" lon="-0.12789">
        <ele>2037</ele>
        <time>2011-03-05T11:00:24Z</time>
      </trkpt>
      <trkpt lat="42.93686" lon="-0.12777">
        <ele>2038</ele>
        <time>2011-03-05T11:00:40Z</time>
      </trkpt>
      <trkpt lat="42.93682" lon="-0.12775">
        <ele>2038</ele>
        <time>2011-03-05T11:00:49Z</time>
      </trkpt>
      <trkpt lat="42.93678" lon="-0.1277">
        <ele>2039</ele>
        <time>2011-03-05T11:00:56Z</time>
      </trkpt>
      <trkpt lat="42.93677" lon="-0.12764">
        <ele>2040</ele>
        <time>2011-03-05T11:01:03Z</time>
      </trkpt>
      <trkpt lat="42.93672" lon="-0.1276">
        <ele>2041</ele>
        <time>2011-03-05T11:01:11Z</time>
      </trkpt>
      <trkpt lat="42.93663" lon="-0.12744">
        <ele>2042</ele>
        <time>2011-03-05T11:01:28Z</time>
      </trkpt>
      <trkpt lat="42.93659" lon="-0.12742">
        <ele>2043</ele>
        <time>2011-03-05T11:01:37Z</time>
      </trkpt>
      <trkpt lat="42.93644" lon="-0.12724">
        <ele>2046</ele>
        <time>2011-03-05T11:02:14Z</time>
      </trkpt>
      <trkpt lat="42.93628" lon="-0.12707">
        <ele>2047</ele>
        <time>2011-03-05T11:02:44Z</time>
      </trkpt>
      <trkpt lat="42.93612" lon="-0.12691">
        <ele>2048</ele>
        <time>2011-03-05T11:03:12Z</time>
      </trkpt>
      <trkpt lat="42.93596" lon="-0.12682">
        <ele>2051</ele>
        <time>2011-03-05T11:03:44Z</time>
      </trkpt>
      <trkpt lat="42.93585" lon="-0.1267">
        <ele>2053</ele>
        <time>2011-03-05T11:04:13Z</time>
      </trkpt>
      <trkpt lat="42.93582" lon="-0.12655">
        <ele>2054</ele>
        <time>2011-03-05T11:04:31Z</time>
      </trkpt>
      <trkpt lat="42.93571" lon="-0.12632">
        <ele>2056</ele>
        <time>2011-03-05T11:05:04Z</time>
      </trkpt>
      <trkpt lat="42.93566" lon="-0.12626">
        <ele>2057</ele>
        <time>2011-03-05T11:05:19Z</time>
      </trkpt>
      <trkpt lat="42.93562" lon="-0.12623">
        <ele>2057</ele>
        <time>2011-03-05T11:05:28Z</time>
      </trkpt>
      <trkpt lat="42.93552" lon="-0.12624">
        <ele>2058</ele>
        <time>2011-03-05T11:05:40Z</time>
      </trkpt>
      <trkpt lat="42.93544" lon="-0.1263">
        <ele>2062</ele>
        <time>2011-03-05T11:05:58Z</time>
      </trkpt>
      <trkpt lat="42.93529" lon="-0.12629">
        <ele>2065</ele>
        <time>2011-03-05T11:06:24Z</time>
      </trkpt>
      <trkpt lat="42.93513" lon="-0.12649">
        <ele>2069</ele>
        <time>2011-03-05T11:07:04Z</time>
      </trkpt>
      <trkpt lat="42.93509" lon="-0.12656">
        <ele>2071</ele>
        <time>2011-03-05T11:07:15Z</time>
      </trkpt>
      <trkpt lat="42.93504" lon="-0.12655">
        <ele>2075</ele>
        <time>2011-03-05T11:07:29Z</time>
      </trkpt>
      <trkpt lat="42.93501" lon="-0.12645">
        <ele>2078</ele>
        <time>2011-03-05T11:07:44Z</time>
      </trkpt>
      <trkpt lat="42.935" lon="-0.12639">
        <ele>2079</ele>
        <time>2011-03-05T11:07:51Z</time>
      </trkpt>
      <trkpt lat="42.93497" lon="-0.12634">
        <ele>2081</ele>
        <time>2011-03-05T11:08:02Z</time>
      </trkpt>
      <trkpt lat="42.93494" lon="-0.12608">
        <ele>2085</ele>
        <time>2011-03-05T11:08:37Z</time>
      </trkpt>
      <trkpt lat="42.93492" lon="-0.12585">
        <ele>2087</ele>
        <time>2011-03-05T11:09:10Z</time>
      </trkpt>
      <trkpt lat="42.93491" lon="-0.12572">
        <ele>2089</ele>
        <time>2011-03-05T11:09:26Z</time>
      </trkpt>
      <trkpt lat="42.93485" lon="-0.12572">
        <ele>2090</ele>
        <time>2011-03-05T11:09:37Z</time>
      </trkpt>
      <trkpt lat="42.93476" lon="-0.12584">
        <ele>2091</ele>
        <time>2011-03-05T11:09:58Z</time>
      </trkpt>
      <trkpt lat="42.93469" lon="-0.12581">
        <ele>2092</ele>
        <time>2011-03-05T11:10:18Z</time>
      </trkpt>
      <trkpt lat="42.93469" lon="-0.12575">
        <ele>2092</ele>
        <time>2011-03-05T11:10:24Z</time>
      </trkpt>
      <trkpt lat="42.93472" lon="-0.12561">
        <ele>2093</ele>
        <time>2011-03-05T11:10:40Z</time>
      </trkpt>
      <trkpt lat="42.93471" lon="-0.12534">
        <ele>2098</ele>
        <time>2011-03-05T11:11:23Z</time>
      </trkpt>
      <trkpt lat="42.93468" lon="-0.12525">
        <ele>2102</ele>
        <time>2011-03-05T11:12:30Z</time>
      </trkpt>
      <trkpt lat="42.93469" lon="-0.12522">
        <ele>2107</ele>
        <time>2011-03-05T11:13:19Z</time>
      </trkpt>
      <trkpt lat="42.93466" lon="-0.12516">
        <ele>2110</ele>
        <time>2011-03-05T11:13:27Z</time>
      </trkpt>
      <trkpt lat="42.93457" lon="-0.12489">
        <ele>2119</ele>
        <time>2011-03-05T11:14:08Z</time>
      </trkpt>
      <trkpt lat="42.93458" lon="-0.12481">
        <ele>2120</ele>
        <time>2011-03-05T11:14:28Z</time>
      </trkpt>
      <trkpt lat="42.93451" lon="-0.12466">
        <ele>2121</ele>
        <time>2011-03-05T11:14:48Z</time>
      </trkpt>
      <trkpt lat="42.93439" lon="-0.12433">
        <ele>2123</ele>
        <time>2011-03-05T11:15:26Z</time>
      </trkpt>
      <trkpt lat="42.93423" lon="-0.12419">
        <ele>2124</ele>
        <time>2011-03-05T11:15:49Z</time>
      </trkpt>
      <trkpt lat="42.9341" lon="-0.124">
        <ele>2123</ele>
        <time>2011-03-05T11:16:16Z</time>
      </trkpt>
      <trkpt lat="42.93404" lon="-0.12379">
        <ele>2122</ele>
        <time>2011-03-05T11:16:35Z</time>
      </trkpt>
      <trkpt lat="42.934" lon="-0.12376">
        <ele>2122</ele>
        <time>2011-03-05T11:16:44Z</time>
      </trkpt>
      <trkpt lat="42.93391" lon="-0.12354">
        <ele>2122</ele>
        <time>2011-03-05T11:17:06Z</time>
      </trkpt>
      <trkpt lat="42.93369" lon="-0.12336">
        <ele>2122</ele>
        <time>2011-03-05T11:17:41Z</time>
      </trkpt>
      <trkpt lat="42.93343" lon="-0.12339">
        <ele>2122</ele>
        <time>2011-03-05T11:18:15Z</time>
      </trkpt>
      <trkpt lat="42.9334" lon="-0.12343">
        <ele>2122</ele>
        <time>2011-03-05T11:18:22Z</time>
      </trkpt>
      <trkpt lat="42.93334" lon="-0.12342">
        <ele>2123</ele>
        <time>2011-03-05T11:18:30Z</time>
      </trkpt>
      <trkpt lat="42.93326" lon="-0.12344">
        <ele>2123</ele>
        <time>2011-03-05T11:18:44Z</time>
      </trkpt>
      <trkpt lat="42.93308" lon="-0.12352">
        <ele>2126</ele>
        <time>2011-03-05T11:19:16Z</time>
      </trkpt>
      <trkpt lat="42.93302" lon="-0.1236">
        <ele>2128</ele>
        <time>2011-03-05T11:19:33Z</time>
      </trkpt>
      <trkpt lat="42.93303" lon="-0.12354">
        <ele>2131</ele>
        <time>2011-03-05T11:20:59Z</time>
      </trkpt>
      <trkpt lat="42.93299" lon="-0.12353">
        <ele>2132</ele>
        <time>2011-03-05T11:21:14Z</time>
      </trkpt>
      <trkpt lat="42.93297" lon="-0.12363">
        <ele>2135</ele>
        <time>2011-03-05T11:21:38Z</time>
      </trkpt>
      <trkpt lat="42.93282" lon="-0.12392">
        <ele>2143</ele>
        <time>2011-03-05T11:22:21Z</time>
      </trkpt>
      <trkpt lat="42.93282" lon="-0.12399">
        <ele>2144</ele>
        <time>2011-03-05T11:22:31Z</time>
      </trkpt>
      <trkpt lat="42.93276" lon="-0.12409">
        <ele>2145</ele>
        <time>2011-03-05T11:22:47Z</time>
      </trkpt>
      <trkpt lat="42.93271" lon="-0.1242">
        <ele>2146</ele>
        <time>2011-03-05T11:23:02Z</time>
      </trkpt>
      <trkpt lat="42.93267" lon="-0.12422">
        <ele>2146</ele>
        <time>2011-03-05T11:23:09Z</time>
      </trkpt>
      <trkpt lat="42.93263" lon="-0.12426">
        <ele>2146</ele>
        <time>2011-03-05T11:23:14Z</time>
      </trkpt>
      <trkpt lat="42.9326" lon="-0.1243">
        <ele>2146</ele>
        <time>2011-03-05T11:23:24Z</time>
      </trkpt>
      <trkpt lat="42.93249" lon="-0.12451">
        <ele>2148</ele>
        <time>2011-03-05T11:24:00Z</time>
      </trkpt>
      <trkpt lat="42.93239" lon="-0.12469">
        <ele>2149</ele>
        <time>2011-03-05T11:24:34Z</time>
      </trkpt>
      <trkpt lat="42.93232" lon="-0.12485">
        <ele>2152</ele>
        <time>2011-03-05T11:25:12Z</time>
      </trkpt>
      <trkpt lat="42.93232" lon="-0.12478">
        <ele>2152</ele>
        <time>2011-03-05T11:25:19Z</time>
      </trkpt>
      <trkpt lat="42.93226" lon="-0.12443">
        <ele>2156</ele>
        <time>2011-03-05T11:25:58Z</time>
      </trkpt>
      <trkpt lat="42.93223" lon="-0.1244">
        <ele>2158</ele>
        <time>2011-03-05T11:26:06Z</time>
      </trkpt>
      <trkpt lat="42.9322" lon="-0.12445">
        <ele>2159</ele>
        <time>2011-03-05T11:26:13Z</time>
      </trkpt>
      <trkpt lat="42.93212" lon="-0.12454">
        <ele>2160</ele>
        <time>2011-03-05T11:26:36Z</time>
      </trkpt>
      <trkpt lat="42.9321" lon="-0.1246">
        <ele>2161</ele>
        <time>2011-03-05T11:26:42Z</time>
      </trkpt>
      <trkpt lat="42.93208" lon="-0.1247">
        <ele>2164</ele>
        <time>2011-03-05T11:26:56Z</time>
      </trkpt>
      <trkpt lat="42.93206" lon="-0.12471">
        <ele>2164</ele>
        <time>2011-03-05T11:27:02Z</time>
      </trkpt>
      <trkpt lat="42.93203" lon="-0.12465">
        <ele>2166</ele>
        <time>2011-03-05T11:27:12Z</time>
      </trkpt>
      <trkpt lat="42.93193" lon="-0.1245">
        <ele>2169</ele>
        <time>2011-03-05T11:27:35Z</time>
      </trkpt>
      <trkpt lat="42.93189" lon="-0.12447">
        <ele>2169</ele>
        <time>2011-03-05T11:27:50Z</time>
      </trkpt>
      <trkpt lat="42.93188" lon="-0.12443">
        <ele>2169</ele>
        <time>2011-03-05T11:28:02Z</time>
      </trkpt>
      <trkpt lat="42.93186" lon="-0.12438">
        <ele>2169</ele>
        <time>2011-03-05T11:28:12Z</time>
      </trkpt>
      <trkpt lat="42.93188" lon="-0.12431">
        <ele>2170</ele>
        <time>2011-03-05T11:28:20Z</time>
      </trkpt>
      <trkpt lat="42.93189" lon="-0.12425">
        <ele>2172</ele>
        <time>2011-03-05T11:28:29Z</time>
      </trkpt>
      <trkpt lat="42.93184" lon="-0.12425">
        <ele>2174</ele>
        <time>2011-03-05T11:28:38Z</time>
      </trkpt>
      <trkpt lat="42.93182" lon="-0.1242">
        <ele>2178</ele>
        <time>2011-03-05T11:28:55Z</time>
      </trkpt>
      <trkpt lat="42.93181" lon="-0.12415">
        <ele>2180</ele>
        <time>2011-03-05T11:29:05Z</time>
      </trkpt>
      <trkpt lat="42.93178" lon="-0.12417">
        <ele>2181</ele>
        <time>2011-03-05T11:29:13Z</time>
      </trkpt>
      <trkpt lat="42.93175" lon="-0.12415">
        <ele>2182</ele>
        <time>2011-03-05T11:29:20Z</time>
      </trkpt>
      <trkpt lat="42.93174" lon="-0.12408">
        <ele>2183</ele>
        <time>2011-03-05T11:29:28Z</time>
      </trkpt>
      <trkpt lat="42.93174" lon="-0.12401">
        <ele>2185</ele>
        <time>2011-03-05T11:29:36Z</time>
      </trkpt>
      <trkpt lat="42.93173" lon="-0.12398">
        <ele>2186</ele>
        <time>2011-03-05T11:29:42Z</time>
      </trkpt>
      <trkpt lat="42.9317" lon="-0.124">
        <ele>2187</ele>
        <time>2011-03-05T11:29:50Z</time>
      </trkpt>
      <trkpt lat="42.93167" lon="-0.12397">
        <ele>2189</ele>
        <time>2011-03-05T11:30:02Z</time>
      </trkpt>
      <trkpt lat="42.93167" lon="-0.12394">
        <ele>2190</ele>
        <time>2011-03-05T11:30:08Z</time>
      </trkpt>
      <trkpt lat="42.93165" lon="-0.12363">
        <ele>2197</ele>
        <time>2011-03-05T11:30:52Z</time>
      </trkpt>
      <trkpt lat="42.93164" lon="-0.1236">
        <ele>2198</ele>
        <time>2011-03-05T11:30:58Z</time>
      </trkpt>
      <trkpt lat="42.93166" lon="-0.12357">
        <ele>2200</ele>
        <time>2011-03-05T11:31:09Z</time>
      </trkpt>
      <trkpt lat="42.93167" lon="-0.12352">
        <ele>2202</ele>
        <time>2011-03-05T11:31:20Z</time>
      </trkpt>
      <trkpt lat="42.93163" lon="-0.12349">
        <ele>2211</ele>
        <time>2011-03-05T11:34:52Z</time>
      </trkpt>
      <trkpt lat="42.93147" lon="-0.12357">
        <ele>2216</ele>
        <time>2011-03-05T11:35:26Z</time>
      </trkpt>
      <trkpt lat="42.93121" lon="-0.1236">
        <ele>2220</ele>
        <time>2011-03-05T11:36:11Z</time>
      </trkpt>
      <trkpt lat="42.93119" lon="-0.12361">
        <ele>2220</ele>
        <time>2011-03-05T11:36:17Z</time>
      </trkpt>
      <trkpt lat="42.93111" lon="-0.12381">
        <ele>2224</ele>
        <time>2011-03-05T11:36:47Z</time>
      </trkpt>
      <trkpt lat="42.9311" lon="-0.12399">
        <ele>2227</ele>
        <time>2011-03-05T11:37:10Z</time>
      </trkpt>
      <trkpt lat="42.93108" lon="-0.12406">
        <ele>2228</ele>
        <time>2011-03-05T11:37:20Z</time>
      </trkpt>
      <trkpt lat="42.93107" lon="-0.12427">
        <ele>2231</ele>
        <time>2011-03-05T11:37:47Z</time>
      </trkpt>
      <trkpt lat="42.9311" lon="-0.12432">
        <ele>2231</ele>
        <time>2011-03-05T11:37:58Z</time>
      </trkpt>
      <trkpt lat="42.93107" lon="-0.12438">
        <ele>2232</ele>
        <time>2011-03-05T11:38:18Z</time>
      </trkpt>
      <trkpt lat="42.93103" lon="-0.1244">
        <ele>2231</ele>
        <time>2011-03-05T11:38:52Z</time>
      </trkpt>
      <trkpt lat="42.93089" lon="-0.12435">
        <ele>2232</ele>
        <time>2011-03-05T11:39:18Z</time>
      </trkpt>
      <trkpt lat="42.93085" lon="-0.12438">
        <ele>2232</ele>
        <time>2011-03-05T11:39:28Z</time>
      </trkpt>
      <trkpt lat="42.93086" lon="-0.12448">
        <ele>2233</ele>
        <time>2011-03-05T11:39:41Z</time>
      </trkpt>
      <trkpt lat="42.93086" lon="-0.12467">
        <ele>2237</ele>
        <time>2011-03-05T11:40:11Z</time>
      </trkpt>
      <trkpt lat="42.93085" lon="-0.12473">
        <ele>2239</ele>
        <time>2011-03-05T11:40:20Z</time>
      </trkpt>
      <trkpt lat="42.93081" lon="-0.12472">
        <ele>2242</ele>
        <time>2011-03-05T11:41:11Z</time>
      </trkpt>
      <trkpt lat="42.9307" lon="-0.12458">
        <ele>2247</ele>
        <time>2011-03-05T11:41:44Z</time>
      </trkpt>
      <trkpt lat="42.93064" lon="-0.12462">
        <ele>2250</ele>
        <time>2011-03-05T11:42:01Z</time>
      </trkpt>
      <trkpt lat="42.93064" lon="-0.1248">
        <ele>2253</ele>
        <time>2011-03-05T11:42:34Z</time>
      </trkpt>
      <trkpt lat="42.93061" lon="-0.12473">
        <ele>2255</ele>
        <time>2011-03-05T11:42:51Z</time>
      </trkpt>
      <trkpt lat="42.93059" lon="-0.12468">
        <ele>2257</ele>
        <time>2011-03-05T11:43:00Z</time>
      </trkpt>
      <trkpt lat="42.93052" lon="-0.12465">
        <ele>2260</ele>
        <time>2011-03-05T11:43:14Z</time>
      </trkpt>
      <trkpt lat="42.93048" lon="-0.12463">
        <ele>2261</ele>
        <time>2011-03-05T11:43:23Z</time>
      </trkpt>
      <trkpt lat="42.93046" lon="-0.12469">
        <ele>2263</ele>
        <time>2011-03-05T11:43:32Z</time>
      </trkpt>
      <trkpt lat="42.9305" lon="-0.12477">
        <ele>2265</ele>
        <time>2011-03-05T11:43:47Z</time>
      </trkpt>
      <trkpt lat="42.9305" lon="-0.12486">
        <ele>2269</ele>
        <time>2011-03-05T11:44:02Z</time>
      </trkpt>
      <trkpt lat="42.93045" lon="-0.12483">
        <ele>2272</ele>
        <time>2011-03-05T11:44:17Z</time>
      </trkpt>
      <trkpt lat="42.93044" lon="-0.12487">
        <ele>2274</ele>
        <time>2011-03-05T11:44:30Z</time>
      </trkpt>
      <trkpt lat="42.93043" lon="-0.12493">
        <ele>2275</ele>
        <time>2011-03-05T11:44:57Z</time>
      </trkpt>
      <trkpt lat="42.9304" lon="-0.12494">
        <ele>2275</ele>
        <time>2011-03-05T11:46:03Z</time>
      </trkpt>
      <trkpt lat="42.93037" lon="-0.12491">
        <ele>2275</ele>
        <time>2011-03-05T11:46:53Z</time>
      </trkpt>
      <trkpt lat="42.9304" lon="-0.12487">
        <ele>2275</ele>
        <time>2011-03-05T11:46:58Z</time>
      </trkpt>
      <trkpt lat="42.93044" lon="-0.12489">
        <ele>2275</ele>
        <time>2011-03-05T11:47:16Z</time>
      </trkpt>
      <trkpt lat="42.93046" lon="-0.12496">
        <ele>2276</ele>
        <time>2011-03-05T11:47:24Z</time>
      </trkpt>
      <trkpt lat="42.93044" lon="-0.12497">
        <ele>2277</ele>
        <time>2011-03-05T11:47:42Z</time>
      </trkpt>
      <trkpt lat="42.93043" lon="-0.12506">
        <ele>2278</ele>
        <time>2011-03-05T11:47:55Z</time>
      </trkpt>
      <trkpt lat="42.93041" lon="-0.12503">
        <ele>2280</ele>
        <time>2011-03-05T11:49:05Z</time>
      </trkpt>
      <trkpt lat="42.93039" lon="-0.1251">
        <ele>2280</ele>
        <time>2011-03-05T11:49:15Z</time>
      </trkpt>
      <trkpt lat="42.93037" lon="-0.12515">
        <ele>2281</ele>
        <time>2011-03-05T11:49:38Z</time>
      </trkpt>
      <trkpt lat="42.93033" lon="-0.12516">
        <ele>2283</ele>
        <time>2011-03-05T11:49:55Z</time>
      </trkpt>
      <trkpt lat="42.93033" lon="-0.12523">
        <ele>2286</ele>
        <time>2011-03-05T11:50:38Z</time>
      </trkpt>
      <trkpt lat="42.93035" lon="-0.12529">
        <ele>2289</ele>
        <time>2011-03-05T11:51:14Z</time>
      </trkpt>
      <trkpt lat="42.93032" lon="-0.12533">
        <ele>2295</ele>
        <time>2011-03-05T11:53:24Z</time>
      </trkpt>
      <trkpt lat="42.93029" lon="-0.1253">
        <ele>2298</ele>
        <time>2011-03-05T11:56:23Z</time>
      </trkpt>
      <trkpt lat="42.93032" lon="-0.12532">
        <ele>2299</ele>
        <time>2011-03-05T11:57:11Z</time>
      </trkpt>
      <trkpt lat="42.93035" lon="-0.12531">
        <ele>2304</ele>
        <time>2011-03-05T12:17:27Z</time>
      </trkpt>
      <trkpt lat="42.93036" lon="-0.12528">
        <ele>2306</ele>
        <time>2011-03-05T12:24:21Z</time>
      </trkpt>
      <trkpt lat="42.93035" lon="-0.12521">
        <ele>2306</ele>
        <time>2011-03-05T12:24:32Z</time>
      </trkpt>
      <trkpt lat="42.93037" lon="-0.12514">
        <ele>2305</ele>
        <time>2011-03-05T12:25:37Z</time>
      </trkpt>
      <trkpt lat="42.93044" lon="-0.12513">
        <ele>2303</ele>
        <time>2011-03-05T12:26:01Z</time>
      </trkpt>
      <trkpt lat="42.93052" lon="-0.12502">
        <ele>2300</ele>
        <time>2011-03-05T12:26:35Z</time>
      </trkpt>
      <trkpt lat="42.93058" lon="-0.12492">
        <ele>2299</ele>
        <time>2011-03-05T12:27:10Z</time>
      </trkpt>
      <trkpt lat="42.93066" lon="-0.12479">
        <ele>2295</ele>
        <time>2011-03-05T12:27:43Z</time>
      </trkpt>
      <trkpt lat="42.93064" lon="-0.12475">
        <ele>2295</ele>
        <time>2011-03-05T12:27:51Z</time>
      </trkpt>
      <trkpt lat="42.93063" lon="-0.12467">
        <ele>2293</ele>
        <time>2011-03-05T12:28:08Z</time>
      </trkpt>
      <trkpt lat="42.93065" lon="-0.12463">
        <ele>2292</ele>
        <time>2011-03-05T12:28:16Z</time>
      </trkpt>
      <trkpt lat="42.93069" lon="-0.12458">
        <ele>2291</ele>
        <time>2011-03-05T12:28:30Z</time>
      </trkpt>
      <trkpt lat="42.93073" lon="-0.12456">
        <ele>2289</ele>
        <time>2011-03-05T12:28:40Z</time>
      </trkpt>
      <trkpt lat="42.93075" lon="-0.12452">
        <ele>2287</ele>
        <time>2011-03-05T12:29:10Z</time>
      </trkpt>
      <trkpt lat="42.93077" lon="-0.12452">
        <ele>2285</ele>
        <time>2011-03-05T12:29:21Z</time>
      </trkpt>
      <trkpt lat="42.9309" lon="-0.12447">
        <ele>2281</ele>
        <time>2011-03-05T12:29:48Z</time>
      </trkpt>
      <trkpt lat="42.93095" lon="-0.12438">
        <ele>2277</ele>
        <time>2011-03-05T12:30:33Z</time>
      </trkpt>
      <trkpt lat="42.93098" lon="-0.12428">
        <ele>2273</ele>
        <time>2011-03-05T12:30:56Z</time>
      </trkpt>
      <trkpt lat="42.93101" lon="-0.12429">
        <ele>2271</ele>
        <time>2011-03-05T12:31:02Z</time>
      </trkpt>
      <trkpt lat="42.93104" lon="-0.1243">
        <ele>2270</ele>
        <time>2011-03-05T12:31:09Z</time>
      </trkpt>
      <trkpt lat="42.93119" lon="-0.12442">
        <ele>2264</ele>
        <time>2011-03-05T12:31:49Z</time>
      </trkpt>
      <trkpt lat="42.93116" lon="-0.12439">
        <ele>2257</ele>
        <time>2011-03-05T12:33:46Z</time>
      </trkpt>
      <trkpt lat="42.93115" lon="-0.12439">
        <ele>2250</ele>
        <time>2011-03-05T12:38:47Z</time>
      </trkpt>
      <trkpt lat="42.93108" lon="-0.12413">
        <ele>2246</ele>
        <time>2011-03-05T13:16:57Z</time>
      </trkpt>
      <trkpt lat="42.93107" lon="-0.12408">
        <ele>2244</ele>
        <time>2011-03-05T13:17:27Z</time>
      </trkpt>
      <trkpt lat="42.93108" lon="-0.12372">
        <ele>2242</ele>
        <time>2011-03-05T13:17:58Z</time>
      </trkpt>
      <trkpt lat="42.93115" lon="-0.12354">
        <ele>2241</ele>
        <time>2011-03-05T13:18:18Z</time>
      </trkpt>
      <trkpt lat="42.93121" lon="-0.12354">
        <ele>2240</ele>
        <time>2011-03-05T13:18:27Z</time>
      </trkpt>
      <trkpt lat="42.93149" lon="-0.12356">
        <ele>2240</ele>
        <time>2011-03-05T13:19:04Z</time>
      </trkpt>
      <trkpt lat="42.93152" lon="-0.12369">
        <ele>2241</ele>
        <time>2011-03-05T13:19:21Z</time>
      </trkpt>
      <trkpt lat="42.93159" lon="-0.12397">
        <ele>2239</ele>
        <time>2011-03-05T13:19:59Z</time>
      </trkpt>
      <trkpt lat="42.93166" lon="-0.12406">
        <ele>2237</ele>
        <time>2011-03-05T13:20:11Z</time>
      </trkpt>
      <trkpt lat="42.93171" lon="-0.12408">
        <ele>2235</ele>
        <time>2011-03-05T13:20:18Z</time>
      </trkpt>
      <trkpt lat="42.93174" lon="-0.12421">
        <ele>2232</ele>
        <time>2011-03-05T13:20:32Z</time>
      </trkpt>
      <trkpt lat="42.9318" lon="-0.12425">
        <ele>2220</ele>
        <time>2011-03-05T13:21:38Z</time>
      </trkpt>
      <trkpt lat="42.93183" lon="-0.12438">
        <ele>2219</ele>
        <time>2011-03-05T13:21:49Z</time>
      </trkpt>
      <trkpt lat="42.93192" lon="-0.12442">
        <ele>2219</ele>
        <time>2011-03-05T13:21:59Z</time>
      </trkpt>
      <trkpt lat="42.9322" lon="-0.12437">
        <ele>2217</ele>
        <time>2011-03-05T13:22:23Z</time>
      </trkpt>
      <trkpt lat="42.93214" lon="-0.12434">
        <ele>2215</ele>
        <time>2011-03-05T13:22:41Z</time>
      </trkpt>
      <trkpt lat="42.9321" lon="-0.1243">
        <ele>2215</ele>
        <time>2011-03-05T13:22:53Z</time>
      </trkpt>
      <trkpt lat="42.93221" lon="-0.12434">
        <ele>2212</ele>
        <time>2011-03-05T13:23:13Z</time>
      </trkpt>
      <trkpt lat="42.93226" lon="-0.12445">
        <ele>2211</ele>
        <time>2011-03-05T13:23:25Z</time>
      </trkpt>
      <trkpt lat="42.93229" lon="-0.12456">
        <ele>2210</ele>
        <time>2011-03-05T13:23:44Z</time>
      </trkpt>
      <trkpt lat="42.9324" lon="-0.12454">
        <ele>2210</ele>
        <time>2011-03-05T13:24:04Z</time>
      </trkpt>
      <trkpt lat="42.9325" lon="-0.12426">
        <ele>2211</ele>
        <time>2011-03-05T13:24:28Z</time>
      </trkpt>
      <trkpt lat="42.93258" lon="-0.12414">
        <ele>2213</ele>
        <time>2011-03-05T13:24:51Z</time>
      </trkpt>
      <trkpt lat="42.93264" lon="-0.12399">
        <ele>2213</ele>
        <time>2011-03-05T13:25:09Z</time>
      </trkpt>
      <trkpt lat="42.93279" lon="-0.12377">
        <ele>2211</ele>
        <time>2011-03-05T13:25:39Z</time>
      </trkpt>
      <trkpt lat="42.93287" lon="-0.1237">
        <ele>2210</ele>
        <time>2011-03-05T13:25:50Z</time>
      </trkpt>
      <trkpt lat="42.93305" lon="-0.12341">
        <ele>2208</ele>
        <time>2011-03-05T13:26:20Z</time>
      </trkpt>
      <trkpt lat="42.93314" lon="-0.12336">
        <ele>2207</ele>
        <time>2011-03-05T13:26:32Z</time>
      </trkpt>
      <trkpt lat="42.93341" lon="-0.12328">
        <ele>2199</ele>
        <time>2011-03-05T13:27:05Z</time>
      </trkpt>
      <trkpt lat="42.93368" lon="-0.1232">
        <ele>2193</ele>
        <time>2011-03-05T13:27:39Z</time>
      </trkpt>
      <trkpt lat="42.93378" lon="-0.1232">
        <ele>2191</ele>
        <time>2011-03-05T13:27:53Z</time>
      </trkpt>
      <trkpt lat="42.93394" lon="-0.12334">
        <ele>2188</ele>
        <time>2011-03-05T13:28:20Z</time>
      </trkpt>
      <trkpt lat="42.934" lon="-0.12348">
        <ele>2188</ele>
        <time>2011-03-05T13:28:42Z</time>
      </trkpt>
      <trkpt lat="42.93408" lon="-0.12356">
        <ele>2188</ele>
        <time>2011-03-05T13:28:51Z</time>
      </trkpt>
      <trkpt lat="42.93413" lon="-0.12368">
        <ele>2188</ele>
        <time>2011-03-05T13:29:00Z</time>
      </trkpt>
      <trkpt lat="42.93421" lon="-0.12401">
        <ele>2188</ele>
        <time>2011-03-05T13:29:34Z</time>
      </trkpt>
      <trkpt lat="42.93426" lon="-0.12412">
        <ele>2188</ele>
        <time>2011-03-05T13:29:45Z</time>
      </trkpt>
      <trkpt lat="42.93435" lon="-0.12412">
        <ele>2186</ele>
        <time>2011-03-05T13:29:53Z</time>
      </trkpt>
      <trkpt lat="42.93445" lon="-0.12413">
        <ele>2184</ele>
        <time>2011-03-05T13:30:02Z</time>
      </trkpt>
      <trkpt lat="42.93453" lon="-0.1242">
        <ele>2183</ele>
        <time>2011-03-05T13:30:14Z</time>
      </trkpt>
      <trkpt lat="42.93455" lon="-0.12437">
        <ele>2182</ele>
        <time>2011-03-05T13:30:30Z</time>
      </trkpt>
      <trkpt lat="42.93459" lon="-0.12465">
        <ele>2181</ele>
        <time>2011-03-05T13:31:02Z</time>
      </trkpt>
      <trkpt lat="42.93465" lon="-0.12475">
        <ele>2178</ele>
        <time>2011-03-05T13:31:29Z</time>
      </trkpt>
      <trkpt lat="42.9347" lon="-0.12509">
        <ele>2175</ele>
        <time>2011-03-05T13:32:08Z</time>
      </trkpt>
      <trkpt lat="42.9347" lon="-0.12507">
        <ele>2171</ele>
        <time>2011-03-05T13:32:46Z</time>
      </trkpt>
      <trkpt lat="42.93491" lon="-0.12519">
        <ele>2171</ele>
        <time>2011-03-05T13:33:10Z</time>
      </trkpt>
      <trkpt lat="42.93488" lon="-0.12532">
        <ele>2171</ele>
        <time>2011-03-05T13:33:24Z</time>
      </trkpt>
      <trkpt lat="42.93482" lon="-0.12543">
        <ele>2170</ele>
        <time>2011-03-05T13:33:34Z</time>
      </trkpt>
      <trkpt lat="42.93483" lon="-0.12557">
        <ele>2169</ele>
        <time>2011-03-05T13:33:44Z</time>
      </trkpt>
      <trkpt lat="42.93489" lon="-0.12567">
        <ele>2168</ele>
        <time>2011-03-05T13:33:53Z</time>
      </trkpt>
      <trkpt lat="42.93496" lon="-0.12576">
        <ele>2166</ele>
        <time>2011-03-05T13:34:04Z</time>
      </trkpt>
      <trkpt lat="42.93524" lon="-0.12583">
        <ele>2154</ele>
        <time>2011-03-05T13:34:48Z</time>
      </trkpt>
      <trkpt lat="42.93535" lon="-0.12583">
        <ele>2151</ele>
        <time>2011-03-05T13:35:05Z</time>
      </trkpt>
      <trkpt lat="42.93561" lon="-0.12602">
        <ele>2146</ele>
        <time>2011-03-05T13:35:34Z</time>
      </trkpt>
      <trkpt lat="42.93566" lon="-0.12604">
        <ele>2145</ele>
        <time>2011-03-05T13:35:48Z</time>
      </trkpt>
      <trkpt lat="42.93574" lon="-0.12631">
        <ele>2141</ele>
        <time>2011-03-05T13:36:24Z</time>
      </trkpt>
      <trkpt lat="42.93581" lon="-0.12657">
        <ele>2140</ele>
        <time>2011-03-05T13:36:54Z</time>
      </trkpt>
      <trkpt lat="42.93584" lon="-0.12674">
        <ele>2140</ele>
        <time>2011-03-05T13:37:10Z</time>
      </trkpt>
      <trkpt lat="42.93588" lon="-0.127">
        <ele>2140</ele>
        <time>2011-03-05T13:37:34Z</time>
      </trkpt>
      <trkpt lat="42.93607" lon="-0.12713">
        <ele>2139</ele>
        <time>2011-03-05T13:38:01Z</time>
      </trkpt>
      <trkpt lat="42.93636" lon="-0.12736">
        <ele>2137</ele>
        <time>2011-03-05T13:38:37Z</time>
      </trkpt>
      <trkpt lat="42.93653" lon="-0.12747">
        <ele>2135</ele>
        <time>2011-03-05T13:39:02Z</time>
      </trkpt>
      <trkpt lat="42.93668" lon="-0.12774">
        <ele>2131</ele>
        <time>2011-03-05T13:39:33Z</time>
      </trkpt>
      <trkpt lat="42.93669" lon="-0.12806">
        <ele>2124</ele>
        <time>2011-03-05T13:40:07Z</time>
      </trkpt>
      <trkpt lat="42.93678" lon="-0.12812">
        <ele>2120</ele>
        <time>2011-03-05T13:40:22Z</time>
      </trkpt>
      <trkpt lat="42.93686" lon="-0.12819">
        <ele>2117</ele>
        <time>2011-03-05T13:40:34Z</time>
      </trkpt>
      <trkpt lat="42.93722" lon="-0.12822">
        <ele>2102</ele>
        <time>2011-03-05T13:41:31Z</time>
      </trkpt>
      <trkpt lat="42.93724" lon="-0.12827">
        <ele>2081</ele>
        <time>2011-03-05T13:44:23Z</time>
      </trkpt>
      <trkpt lat="42.9373" lon="-0.12816">
        <ele>2073</ele>
        <time>2011-03-05T13:44:46Z</time>
      </trkpt>
      <trkpt lat="42.93735" lon="-0.12814">
        <ele>2070</ele>
        <time>2011-03-05T13:44:52Z</time>
      </trkpt>
      <trkpt lat="42.93766" lon="-0.1282">
        <ele>2061</ele>
        <time>2011-03-05T13:45:27Z</time>
      </trkpt>
      <trkpt lat="42.93774" lon="-0.12825">
        <ele>2059</ele>
        <time>2011-03-05T13:45:37Z</time>
      </trkpt>
      <trkpt lat="42.93778" lon="-0.12833">
        <ele>2055</ele>
        <time>2011-03-05T13:45:52Z</time>
      </trkpt>
      <trkpt lat="42.93802" lon="-0.12845">
        <ele>2043</ele>
        <time>2011-03-05T13:46:34Z</time>
      </trkpt>
      <trkpt lat="42.93812" lon="-0.12842">
        <ele>2039</ele>
        <time>2011-03-05T13:46:46Z</time>
      </trkpt>
      <trkpt lat="42.9382" lon="-0.12846">
        <ele>2036</ele>
        <time>2011-03-05T13:46:55Z</time>
      </trkpt>
      <trkpt lat="42.93828" lon="-0.12838">
        <ele>2031</ele>
        <time>2011-03-05T13:47:09Z</time>
      </trkpt>
      <trkpt lat="42.93838" lon="-0.12815">
        <ele>2024</ele>
        <time>2011-03-05T13:47:29Z</time>
      </trkpt>
      <trkpt lat="42.93837" lon="-0.12794">
        <ele>2018</ele>
        <time>2011-03-05T13:47:46Z</time>
      </trkpt>
      <trkpt lat="42.93849" lon="-0.12763">
        <ele>2009</ele>
        <time>2011-03-05T13:48:15Z</time>
      </trkpt>
      <trkpt lat="42.9386" lon="-0.12749">
        <ele>2004</ele>
        <time>2011-03-05T13:48:33Z</time>
      </trkpt>
      <trkpt lat="42.93879" lon="-0.1275">
        <ele>1999</ele>
        <time>2011-03-05T13:48:55Z</time>
      </trkpt>
      <trkpt lat="42.93888" lon="-0.12755">
        <ele>1996</ele>
        <time>2011-03-05T13:49:06Z</time>
      </trkpt>
      <trkpt lat="42.93893" lon="-0.12755">
        <ele>1995</ele>
        <time>2011-03-05T13:49:11Z</time>
      </trkpt>
      <trkpt lat="42.93924" lon="-0.12729">
        <ele>1989</ele>
        <time>2011-03-05T13:49:44Z</time>
      </trkpt>
      <trkpt lat="42.93932" lon="-0.12721">
        <ele>1987</ele>
        <time>2011-03-05T13:49:54Z</time>
      </trkpt>
      <trkpt lat="42.93958" lon="-0.12722">
        <ele>1982</ele>
        <time>2011-03-05T13:50:21Z</time>
      </trkpt>
      <trkpt lat="42.93978" lon="-0.12728">
        <ele>1976</ele>
        <time>2011-03-05T13:50:51Z</time>
      </trkpt>
      <trkpt lat="42.93983" lon="-0.12727">
        <ele>1975</ele>
        <time>2011-03-05T13:50:58Z</time>
      </trkpt>
      <trkpt lat="42.94013" lon="-0.12732">
        <ele>1970</ele>
        <time>2011-03-05T13:51:30Z</time>
      </trkpt>
      <trkpt lat="42.94016" lon="-0.12738">
        <ele>1969</ele>
        <time>2011-03-05T13:51:36Z</time>
      </trkpt>
      <trkpt lat="42.94024" lon="-0.12756">
        <ele>1966</ele>
        <time>2011-03-05T13:51:53Z</time>
      </trkpt>
      <trkpt lat="42.94034" lon="-0.12763">
        <ele>1961</ele>
        <time>2011-03-05T13:52:08Z</time>
      </trkpt>
      <trkpt lat="42.94036" lon="-0.12766">
        <ele>1957</ele>
        <time>2011-03-05T13:53:37Z</time>
      </trkpt>
      <trkpt lat="42.94044" lon="-0.1279">
        <ele>1952</ele>
        <time>2011-03-05T13:53:55Z</time>
      </trkpt>
      <trkpt lat="42.9404" lon="-0.12791">
        <ele>1950</ele>
        <time>2011-03-05T13:54:16Z</time>
      </trkpt>
      <trkpt lat="42.94043" lon="-0.12797">
        <ele>1949</ele>
        <time>2011-03-05T13:55:00Z</time>
      </trkpt>
      <trkpt lat="42.94051" lon="-0.12803">
        <ele>1947</ele>
        <time>2011-03-05T13:55:07Z</time>
      </trkpt>
      <trkpt lat="42.94057" lon="-0.12801">
        <ele>1946</ele>
        <time>2011-03-05T13:55:12Z</time>
      </trkpt>
      <trkpt lat="42.9407" lon="-0.12794">
        <ele>1943</ele>
        <time>2011-03-05T13:55:31Z</time>
      </trkpt>
      <trkpt lat="42.94082" lon="-0.12773">
        <ele>1940</ele>
        <time>2011-03-05T13:56:03Z</time>
      </trkpt>
      <trkpt lat="42.94105" lon="-0.12735">
        <ele>1934</ele>
        <time>2011-03-05T13:56:39Z</time>
      </trkpt>
      <trkpt lat="42.94118" lon="-0.12718">
        <ele>1930</ele>
        <time>2011-03-05T13:57:01Z</time>
      </trkpt>
      <trkpt lat="42.94154" lon="-0.12703">
        <ele>1922</ele>
        <time>2011-03-05T13:57:40Z</time>
      </trkpt>
      <trkpt lat="42.94177" lon="-0.12698">
        <ele>1911</ele>
        <time>2011-03-05T13:58:18Z</time>
      </trkpt>
      <trkpt lat="42.94192" lon="-0.12688">
        <ele>1906</ele>
        <time>2011-03-05T13:58:35Z</time>
      </trkpt>
      <trkpt lat="42.94219" lon="-0.1269">
        <ele>1895</ele>
        <time>2011-03-05T13:59:09Z</time>
      </trkpt>
      <trkpt lat="42.94243" lon="-0.12706">
        <ele>1886</ele>
        <time>2011-03-05T13:59:40Z</time>
      </trkpt>
      <trkpt lat="42.94249" lon="-0.12708">
        <ele>1884</ele>
        <time>2011-03-05T13:59:46Z</time>
      </trkpt>
      <trkpt lat="42.94279" lon="-0.12735">
        <ele>1876</ele>
        <time>2011-03-05T14:00:20Z</time>
      </trkpt>
      <trkpt lat="42.94305" lon="-0.12759">
        <ele>1866</ele>
        <time>2011-03-05T14:00:54Z</time>
      </trkpt>
      <trkpt lat="42.94326" lon="-0.12797">
        <ele>1858</ele>
        <time>2011-03-05T14:01:30Z</time>
      </trkpt>
      <trkpt lat="42.94348" lon="-0.12823">
        <ele>1853</ele>
        <time>2011-03-05T14:02:01Z</time>
      </trkpt>
      <trkpt lat="42.94373" lon="-0.1284">
        <ele>1848</ele>
        <time>2011-03-05T14:02:33Z</time>
      </trkpt>
      <trkpt lat="42.94407" lon="-0.12869">
        <ele>1843</ele>
        <time>2011-03-05T14:03:13Z</time>
      </trkpt>
      <trkpt lat="42.94415" lon="-0.12877">
        <ele>1842</ele>
        <time>2011-03-05T14:03:27Z</time>
      </trkpt>
      <trkpt lat="42.94424" lon="-0.12881">
        <ele>1841</ele>
        <time>2011-03-05T14:03:36Z</time>
      </trkpt>
      <trkpt lat="42.94456" lon="-0.12879">
        <ele>1841</ele>
        <time>2011-03-05T14:04:09Z</time>
      </trkpt>
      <trkpt lat="42.9449" lon="-0.12879">
        <ele>1839</ele>
        <time>2011-03-05T14:04:44Z</time>
      </trkpt>
      <trkpt lat="42.94524" lon="-0.12876">
        <ele>1839</ele>
        <time>2011-03-05T14:05:19Z</time>
      </trkpt>
      <trkpt lat="42.94552" lon="-0.12874">
        <ele>1838</ele>
        <time>2011-03-05T14:05:49Z</time>
      </trkpt>
      <trkpt lat="42.94585" lon="-0.12874">
        <ele>1837</ele>
        <time>2011-03-05T14:06:24Z</time>
      </trkpt>
      <trkpt lat="42.94617" lon="-0.12886">
        <ele>1835</ele>
        <time>2011-03-05T14:07:06Z</time>
      </trkpt>
      <trkpt lat="42.94654" lon="-0.12879">
        <ele>1831</ele>
        <time>2011-03-05T14:07:42Z</time>
      </trkpt>
      <trkpt lat="42.9469" lon="-0.12854">
        <ele>1827</ele>
        <time>2011-03-05T14:08:18Z</time>
      </trkpt>
      <trkpt lat="42.94722" lon="-0.12839">
        <ele>1822</ele>
        <time>2011-03-05T14:08:55Z</time>
      </trkpt>
      <trkpt lat="42.9474" lon="-0.12837">
        <ele>1819</ele>
        <time>2011-03-05T14:09:17Z</time>
      </trkpt>
      <trkpt lat="42.94735" lon="-0.1284">
        <ele>1817</ele>
        <time>2011-03-05T14:09:36Z</time>
      </trkpt>
      <trkpt lat="42.94734" lon="-0.12845">
        <ele>1817</ele>
        <time>2011-03-05T14:09:55Z</time>
      </trkpt>
      <trkpt lat="42.94739" lon="-0.12848">
        <ele>1812</ele>
        <time>2011-03-05T14:10:30Z</time>
      </trkpt>
      <trkpt lat="42.94768" lon="-0.12867">
        <ele>1799</ele>
        <time>2011-03-05T14:11:02Z</time>
      </trkpt>
      <trkpt lat="42.9479" lon="-0.1289">
        <ele>1791</ele>
        <time>2011-03-05T14:11:32Z</time>
      </trkpt>
      <trkpt lat="42.94811" lon="-0.12924">
        <ele>1784</ele>
        <time>2011-03-05T14:12:09Z</time>
      </trkpt>
      <trkpt lat="42.94829" lon="-0.12955">
        <ele>1779</ele>
        <time>2011-03-05T14:12:43Z</time>
      </trkpt>
      <trkpt lat="42.94841" lon="-0.12993">
        <ele>1777</ele>
        <time>2011-03-05T14:13:15Z</time>
      </trkpt>
      <trkpt lat="42.94853" lon="-0.1303">
        <ele>1774</ele>
        <time>2011-03-05T14:13:48Z</time>
      </trkpt>
      <trkpt lat="42.94871" lon="-0.1306">
        <ele>1771</ele>
        <time>2011-03-05T14:14:23Z</time>
      </trkpt>
      <trkpt lat="42.94891" lon="-0.13082">
        <ele>1768</ele>
        <time>2011-03-05T14:14:55Z</time>
      </trkpt>
      <trkpt lat="42.94905" lon="-0.13098">
        <ele>1766</ele>
        <time>2011-03-05T14:15:15Z</time>
      </trkpt>
      <trkpt lat="42.94906" lon="-0.13102">
        <ele>1765</ele>
        <time>2011-03-05T14:15:26Z</time>
      </trkpt>
      <trkpt lat="42.94914" lon="-0.13105">
        <ele>1765</ele>
        <time>2011-03-05T14:15:38Z</time>
      </trkpt>
      <trkpt lat="42.94927" lon="-0.13109">
        <ele>1764</ele>
        <time>2011-03-05T14:15:51Z</time>
      </trkpt>
      <trkpt lat="42.94931" lon="-0.13106">
        <ele>1764</ele>
        <time>2011-03-05T14:15:57Z</time>
      </trkpt>
      <trkpt lat="42.94953" lon="-0.13113">
        <ele>1764</ele>
        <time>2011-03-05T14:16:21Z</time>
      </trkpt>
      <trkpt lat="42.94988" lon="-0.13132">
        <ele>1764</ele>
        <time>2011-03-05T14:16:56Z</time>
      </trkpt>
      <trkpt lat="42.95002" lon="-0.13142">
        <ele>1763</ele>
        <time>2011-03-05T14:17:11Z</time>
      </trkpt>
      <trkpt lat="42.95011" lon="-0.1315">
        <ele>1760</ele>
        <time>2011-03-05T14:17:44Z</time>
      </trkpt>
      <trkpt lat="42.9504" lon="-0.1317">
        <ele>1755</ele>
        <time>2011-03-05T14:18:16Z</time>
      </trkpt>
      <trkpt lat="42.95071" lon="-0.13192">
        <ele>1748</ele>
        <time>2011-03-05T14:18:53Z</time>
      </trkpt>
      <trkpt lat="42.95094" lon="-0.13225">
        <ele>1740</ele>
        <time>2011-03-05T14:19:27Z</time>
      </trkpt>
      <trkpt lat="42.95119" lon="-0.13258">
        <ele>1734</ele>
        <time>2011-03-05T14:20:00Z</time>
      </trkpt>
      <trkpt lat="42.95144" lon="-0.13285">
        <ele>1728</ele>
        <time>2011-03-05T14:20:34Z</time>
      </trkpt>
      <trkpt lat="42.95162" lon="-0.13318">
        <ele>1724</ele>
        <time>2011-03-05T14:21:04Z</time>
      </trkpt>
      <trkpt lat="42.95181" lon="-0.13353">
        <ele>1719</ele>
        <time>2011-03-05T14:21:38Z</time>
      </trkpt>
      <trkpt lat="42.95206" lon="-0.13378">
        <ele>1715</ele>
        <time>2011-03-05T14:22:08Z</time>
      </trkpt>
      <trkpt lat="42.95231" lon="-0.13405">
        <ele>1712</ele>
        <time>2011-03-05T14:22:43Z</time>
      </trkpt>
      <trkpt lat="42.95251" lon="-0.13438">
        <ele>1708</ele>
        <time>2011-03-05T14:23:14Z</time>
      </trkpt>
      <trkpt lat="42.95275" lon="-0.13473">
        <ele>1704</ele>
        <time>2011-03-05T14:23:51Z</time>
      </trkpt>
      <trkpt lat="42.95302" lon="-0.13507">
        <ele>1701</ele>
        <time>2011-03-05T14:24:28Z</time>
      </trkpt>
      <trkpt lat="42.95332" lon="-0.1354">
        <ele>1698</ele>
        <time>2011-03-05T14:25:06Z</time>
      </trkpt>
      <trkpt lat="42.95365" lon="-0.13563">
        <ele>1695</ele>
        <time>2011-03-05T14:25:40Z</time>
      </trkpt>
      <trkpt lat="42.95369" lon="-0.13567">
        <ele>1695</ele>
        <time>2011-03-05T14:25:46Z</time>
      </trkpt>
      <trkpt lat="42.95371" lon="-0.13573">
        <ele>1694</ele>
        <time>2011-03-05T14:25:51Z</time>
      </trkpt>
      <trkpt lat="42.95373" lon="-0.13582">
        <ele>1695</ele>
        <time>2011-03-05T14:26:47Z</time>
      </trkpt>
      <trkpt lat="42.95384" lon="-0.13596">
        <ele>1696</ele>
        <time>2011-03-05T14:27:02Z</time>
      </trkpt>
      <trkpt lat="42.95396" lon="-0.13607">
        <ele>1696</ele>
        <time>2011-03-05T14:27:17Z</time>
      </trkpt>
      <trkpt lat="42.95435" lon="-0.13615">
        <ele>1694</ele>
        <time>2011-03-05T14:27:51Z</time>
      </trkpt>
      <trkpt lat="42.95472" lon="-0.13622">
        <ele>1691</ele>
        <time>2011-03-05T14:28:25Z</time>
      </trkpt>
      <trkpt lat="42.95504" lon="-0.13627">
        <ele>1686</ele>
        <time>2011-03-05T14:28:59Z</time>
      </trkpt>
      <trkpt lat="42.95535" lon="-0.13639">
        <ele>1682</ele>
        <time>2011-03-05T14:29:30Z</time>
      </trkpt>
      <trkpt lat="42.95565" lon="-0.13657">
        <ele>1679</ele>
        <time>2011-03-05T14:30:00Z</time>
      </trkpt>
      <trkpt lat="42.95599" lon="-0.13676">
        <ele>1674</ele>
        <time>2011-03-05T14:30:36Z</time>
      </trkpt>
      <trkpt lat="42.95628" lon="-0.13705">
        <ele>1669</ele>
        <time>2011-03-05T14:31:11Z</time>
      </trkpt>
      <trkpt lat="42.95631" lon="-0.13709">
        <ele>1668</ele>
        <time>2011-03-05T14:31:16Z</time>
      </trkpt>
      <trkpt lat="42.95636" lon="-0.13721">
        <ele>1666</ele>
        <time>2011-03-05T14:31:31Z</time>
      </trkpt>
      <trkpt lat="42.95654" lon="-0.13731">
        <ele>1663</ele>
        <time>2011-03-05T14:31:50Z</time>
      </trkpt>
      <trkpt lat="42.95677" lon="-0.13736">
        <ele>1659</ele>
        <time>2011-03-05T14:32:16Z</time>
      </trkpt>
      <trkpt lat="42.95681" lon="-0.13731">
        <ele>1658</ele>
        <time>2011-03-05T14:32:23Z</time>
      </trkpt>
      <trkpt lat="42.95686" lon="-0.13718">
        <ele>1655</ele>
        <time>2011-03-05T14:32:48Z</time>
      </trkpt>
      <trkpt lat="42.9569" lon="-0.13717">
        <ele>1653</ele>
        <time>2011-03-05T14:33:01Z</time>
      </trkpt>
      <trkpt lat="42.95693" lon="-0.13721">
        <ele>1652</ele>
        <time>2011-03-05T14:33:10Z</time>
      </trkpt>
      <trkpt lat="42.95697" lon="-0.13717">
        <ele>1650</ele>
        <time>2011-03-05T14:33:29Z</time>
      </trkpt>
      <trkpt lat="42.95701" lon="-0.13721">
        <ele>1649</ele>
        <time>2011-03-05T14:33:36Z</time>
      </trkpt>
      <trkpt lat="42.95705" lon="-0.13726">
        <ele>1648</ele>
        <time>2011-03-05T14:33:42Z</time>
      </trkpt>
      <trkpt lat="42.95709" lon="-0.13743">
        <ele>1645</ele>
        <time>2011-03-05T14:34:21Z</time>
      </trkpt>
      <trkpt lat="42.95711" lon="-0.13749">
        <ele>1644</ele>
        <time>2011-03-05T14:34:27Z</time>
      </trkpt>
      <trkpt lat="42.95716" lon="-0.13748">
        <ele>1640</ele>
        <time>2011-03-05T14:34:53Z</time>
      </trkpt>
      <trkpt lat="42.95721" lon="-0.13743">
        <ele>1639</ele>
        <time>2011-03-05T14:35:04Z</time>
      </trkpt>
      <trkpt lat="42.95726" lon="-0.13746">
        <ele>1638</ele>
        <time>2011-03-05T14:35:12Z</time>
      </trkpt>
      <trkpt lat="42.95735" lon="-0.13752">
        <ele>1635</ele>
        <time>2011-03-05T14:35:27Z</time>
      </trkpt>
      <trkpt lat="42.95741" lon="-0.13762">
        <ele>1632</ele>
        <time>2011-03-05T14:35:46Z</time>
      </trkpt>
      <trkpt lat="42.95742" lon="-0.13786">
        <ele>1627</ele>
        <time>2011-03-05T14:36:08Z</time>
      </trkpt>
      <trkpt lat="42.95747" lon="-0.13774">
        <ele>1623</ele>
        <time>2011-03-05T14:36:23Z</time>
      </trkpt>
      <trkpt lat="42.9575" lon="-0.13768">
        <ele>1621</ele>
        <time>2011-03-05T14:36:32Z</time>
      </trkpt>
      <trkpt lat="42.95757" lon="-0.13769">
        <ele>1619</ele>
        <time>2011-03-05T14:36:40Z</time>
      </trkpt>
      <trkpt lat="42.95762" lon="-0.1377">
        <ele>1614</ele>
        <time>2011-03-05T14:36:56Z</time>
      </trkpt>
      <trkpt lat="42.95766" lon="-0.13762">
        <ele>1612</ele>
        <time>2011-03-05T14:37:05Z</time>
      </trkpt>
      <trkpt lat="42.95769" lon="-0.13757">
        <ele>1610</ele>
        <time>2011-03-05T14:37:14Z</time>
      </trkpt>
      <trkpt lat="42.95782" lon="-0.13754">
        <ele>1605</ele>
        <time>2011-03-05T14:37:42Z</time>
      </trkpt>
      <trkpt lat="42.95796" lon="-0.1372">
        <ele>1597</ele>
        <time>2011-03-05T14:38:21Z</time>
      </trkpt>
      <trkpt lat="42.95805" lon="-0.13716">
        <ele>1594</ele>
        <time>2011-03-05T14:38:37Z</time>
      </trkpt>
      <trkpt lat="42.95814" lon="-0.13717">
        <ele>1591</ele>
        <time>2011-03-05T14:38:49Z</time>
      </trkpt>
      <trkpt lat="42.95822" lon="-0.13711">
        <ele>1588</ele>
        <time>2011-03-05T14:39:03Z</time>
      </trkpt>
      <trkpt lat="42.95825" lon="-0.13698">
        <ele>1585</ele>
        <time>2011-03-05T14:39:16Z</time>
      </trkpt>
      <trkpt lat="42.95833" lon="-0.13691">
        <ele>1583</ele>
        <time>2011-03-05T14:39:24Z</time>
      </trkpt>
      <trkpt lat="42.9584" lon="-0.13691">
        <ele>1582</ele>
        <time>2011-03-05T14:39:30Z</time>
      </trkpt>
      <trkpt lat="42.95848" lon="-0.13691">
        <ele>1583</ele>
        <time>2011-03-05T14:40:42Z</time>
      </trkpt>
      <trkpt lat="42.95854" lon="-0.13696">
        <ele>1582</ele>
        <time>2011-03-05T14:41:05Z</time>
      </trkpt>
      <trkpt lat="42.95866" lon="-0.13702">
        <ele>1582</ele>
        <time>2011-03-05T14:41:25Z</time>
      </trkpt>
      <trkpt lat="42.95873" lon="-0.13692">
        <ele>1582</ele>
        <time>2011-03-05T14:41:39Z</time>
      </trkpt>
      <trkpt lat="42.95878" lon="-0.13693">
        <ele>1582</ele>
        <time>2011-03-05T14:41:44Z</time>
      </trkpt>
      <trkpt lat="42.95896" lon="-0.13685">
        <ele>1580</ele>
        <time>2011-03-05T14:42:08Z</time>
      </trkpt>
      <trkpt lat="42.9591" lon="-0.13674">
        <ele>1574</ele>
        <time>2011-03-05T14:42:40Z</time>
      </trkpt>
      <trkpt lat="42.95916" lon="-0.13678">
        <ele>1572</ele>
        <time>2011-03-05T14:42:58Z</time>
      </trkpt>
      <trkpt lat="42.9593" lon="-0.13677">
        <ele>1570</ele>
        <time>2011-03-05T14:43:11Z</time>
      </trkpt>
      <trkpt lat="42.95938" lon="-0.13681">
        <ele>1568</ele>
        <time>2011-03-05T14:43:20Z</time>
      </trkpt>
      <trkpt lat="42.95945" lon="-0.13674">
        <ele>1566</ele>
        <time>2011-03-05T14:43:31Z</time>
      </trkpt>
      <trkpt lat="42.95951" lon="-0.13663">
        <ele>1563</ele>
        <time>2011-03-05T14:43:43Z</time>
      </trkpt>
      <trkpt lat="42.95959" lon="-0.13657">
        <ele>1560</ele>
        <time>2011-03-05T14:43:53Z</time>
      </trkpt>
      <trkpt lat="42.95964" lon="-0.13663">
        <ele>1559</ele>
        <time>2011-03-05T14:43:59Z</time>
      </trkpt>
      <trkpt lat="42.95985" lon="-0.13662">
        <ele>1551</ele>
        <time>2011-03-05T14:44:31Z</time>
      </trkpt>
      <trkpt lat="42.96019" lon="-0.13671">
        <ele>1542</ele>
        <time>2011-03-05T14:45:10Z</time>
      </trkpt>
      <trkpt lat="42.9605" lon="-0.13673">
        <ele>1534</ele>
        <time>2011-03-05T14:45:40Z</time>
      </trkpt>
      <trkpt lat="42.96081" lon="-0.13678">
        <ele>1527</ele>
        <time>2011-03-05T14:46:13Z</time>
      </trkpt>
      <trkpt lat="42.96109" lon="-0.13691">
        <ele>1520</ele>
        <time>2011-03-05T14:46:46Z</time>
      </trkpt>
      <trkpt lat="42.96133" lon="-0.13685">
        <ele>1516</ele>
        <time>2011-03-05T14:47:17Z</time>
      </trkpt>
      <trkpt lat="42.96165" lon="-0.13674">
        <ele>1512</ele>
        <time>2011-03-05T14:47:53Z</time>
      </trkpt>
      <trkpt lat="42.9619" lon="-0.13649">
        <ele>1506</ele>
        <time>2011-03-05T14:48:26Z</time>
      </trkpt>
      <trkpt lat="42.96198" lon="-0.13641">
        <ele>1503</ele>
        <time>2011-03-05T14:48:37Z</time>
      </trkpt>
      <trkpt lat="42.96204" lon="-0.13641">
        <ele>1501</ele>
        <time>2011-03-05T14:48:44Z</time>
      </trkpt>
      <trkpt lat="42.96222" lon="-0.13654">
        <ele>1497</ele>
        <time>2011-03-05T14:49:05Z</time>
      </trkpt>
      <trkpt lat="42.96231" lon="-0.1365">
        <ele>1495</ele>
        <time>2011-03-05T14:49:15Z</time>
      </trkpt>
      <trkpt lat="42.96244" lon="-0.1363">
        <ele>1492</ele>
        <time>2011-03-05T14:49:33Z</time>
      </trkpt>
      <trkpt lat="42.96251" lon="-0.13611">
        <ele>1488</ele>
        <time>2011-03-05T14:49:48Z</time>
      </trkpt>
      <trkpt lat="42.96255" lon="-0.13607">
        <ele>1486</ele>
        <time>2011-03-05T14:50:02Z</time>
      </trkpt>
      <trkpt lat="42.96263" lon="-0.13612">
        <ele>1483</ele>
        <time>2011-03-05T14:50:14Z</time>
      </trkpt>
      <trkpt lat="42.96283" lon="-0.13641">
        <ele>1475</ele>
        <time>2011-03-05T14:50:46Z</time>
      </trkpt>
      <trkpt lat="42.96298" lon="-0.13659">
        <ele>1473</ele>
        <time>2011-03-05T14:51:03Z</time>
      </trkpt>
      <trkpt lat="42.96315" lon="-0.1371">
        <ele>1471</ele>
        <time>2011-03-05T14:51:39Z</time>
      </trkpt>
      <trkpt lat="42.96328" lon="-0.13734">
        <ele>1470</ele>
        <time>2011-03-05T14:51:57Z</time>
      </trkpt>
      <trkpt lat="42.9633" lon="-0.13748">
        <ele>1469</ele>
        <time>2011-03-05T14:52:08Z</time>
      </trkpt>
      <trkpt lat="42.96335" lon="-0.13759">
        <ele>1467</ele>
        <time>2011-03-05T14:52:17Z</time>
      </trkpt>
      <trkpt lat="42.96344" lon="-0.13755">
        <ele>1464</ele>
        <time>2011-03-05T14:52:28Z</time>
      </trkpt>
      <trkpt lat="42.96356" lon="-0.13741">
        <ele>1460</ele>
        <time>2011-03-05T14:52:39Z</time>
      </trkpt>
      <trkpt lat="42.96359" lon="-0.13732">
        <ele>1458</ele>
        <time>2011-03-05T14:52:45Z</time>
      </trkpt>
      <trkpt lat="42.96364" lon="-0.13729">
        <ele>1455</ele>
        <time>2011-03-05T14:52:52Z</time>
      </trkpt>
      <trkpt lat="42.96382" lon="-0.13731">
        <ele>1448</ele>
        <time>2011-03-05T14:53:12Z</time>
      </trkpt>
      <trkpt lat="42.96385" lon="-0.13744">
        <ele>1446</ele>
        <time>2011-03-05T14:53:21Z</time>
      </trkpt>
      <trkpt lat="42.96382" lon="-0.13787">
        <ele>1434</ele>
        <time>2011-03-05T14:53:47Z</time>
      </trkpt>
      <trkpt lat="42.96385" lon="-0.13793">
        <ele>1432</ele>
        <time>2011-03-05T14:53:52Z</time>
      </trkpt>
      <trkpt lat="42.9639" lon="-0.13791">
        <ele>1429</ele>
        <time>2011-03-05T14:54:02Z</time>
      </trkpt>
      <trkpt lat="42.96413" lon="-0.13766">
        <ele>1418</ele>
        <time>2011-03-05T14:54:34Z</time>
      </trkpt>
      <trkpt lat="42.96435" lon="-0.13738">
        <ele>1409</ele>
        <time>2011-03-05T14:55:07Z</time>
      </trkpt>
      <trkpt lat="42.96462" lon="-0.13708">
        <ele>1402</ele>
        <time>2011-03-05T14:55:35Z</time>
      </trkpt>
      <trkpt lat="42.96471" lon="-0.13708">
        <ele>1400</ele>
        <time>2011-03-05T14:55:46Z</time>
      </trkpt>
      <trkpt lat="42.96479" lon="-0.13716">
        <ele>1398</ele>
        <time>2011-03-05T14:55:57Z</time>
      </trkpt>
      <trkpt lat="42.96487" lon="-0.1374">
        <ele>1394</ele>
        <time>2011-03-05T14:56:15Z</time>
      </trkpt>
      <trkpt lat="42.96486" lon="-0.13795">
        <ele>1378</ele>
        <time>2011-03-05T14:56:56Z</time>
      </trkpt>
      <trkpt lat="42.96466" lon="-0.13848">
        <ele>1370</ele>
        <time>2011-03-05T14:57:32Z</time>
      </trkpt>
      <trkpt lat="42.9645" lon="-0.13891">
        <ele>1364</ele>
        <time>2011-03-05T14:58:01Z</time>
      </trkpt>
      <trkpt lat="42.96456" lon="-0.13905">
        <ele>1361</ele>
        <time>2011-03-05T14:58:16Z</time>
      </trkpt>
      <trkpt lat="42.96465" lon="-0.13901">
        <ele>1358</ele>
        <time>2011-03-05T14:58:34Z</time>
      </trkpt>
      <trkpt lat="42.96495" lon="-0.13873">
        <ele>1353</ele>
        <time>2011-03-05T14:59:11Z</time>
      </trkpt>
      <trkpt lat="42.96533" lon="-0.13849">
        <ele>1348</ele>
        <time>2011-03-05T14:59:50Z</time>
      </trkpt>
      <trkpt lat="42.96566" lon="-0.13823">
        <ele>1344</ele>
        <time>2011-03-05T15:00:25Z</time>
      </trkpt>
      <trkpt lat="42.96588" lon="-0.13804">
        <ele>1343</ele>
        <time>2011-03-05T15:00:39Z</time>
      </trkpt>
      <trkpt lat="42.9662" lon="-0.1377">
        <ele>1338</ele>
        <time>2011-03-05T15:01:16Z</time>
      </trkpt>
      <trkpt lat="42.96647" lon="-0.13731">
        <ele>1333</ele>
        <time>2011-03-05T15:01:48Z</time>
      </trkpt>
      <trkpt lat="42.96653" lon="-0.13727">
        <ele>1332</ele>
        <time>2011-03-05T15:01:53Z</time>
      </trkpt>
      <trkpt lat="42.96684" lon="-0.13734">
        <ele>1327</ele>
        <time>2011-03-05T15:02:19Z</time>
      </trkpt>
      <trkpt lat="42.96709" lon="-0.13754">
        <ele>1320</ele>
        <time>2011-03-05T15:02:54Z</time>
      </trkpt>
      <trkpt lat="42.9671" lon="-0.13761">
        <ele>1319</ele>
        <time>2011-03-05T15:02:59Z</time>
      </trkpt>
      <trkpt lat="42.96716" lon="-0.13773">
        <ele>1316</ele>
        <time>2011-03-05T15:03:13Z</time>
      </trkpt>
      <trkpt lat="42.96739" lon="-0.13789">
        <ele>1308</ele>
        <time>2011-03-05T15:03:46Z</time>
      </trkpt>
      <trkpt lat="42.96771" lon="-0.13808">
        <ele>1297</ele>
        <time>2011-03-05T15:04:25Z</time>
      </trkpt>
      <trkpt lat="42.96803" lon="-0.13818">
        <ele>1292</ele>
        <time>2011-03-05T15:04:59Z</time>
      </trkpt>
      <trkpt lat="42.96842" lon="-0.13817">
        <ele>1284</ele>
        <time>2011-03-05T15:05:32Z</time>
      </trkpt>
      <trkpt lat="42.9687" lon="-0.13827">
        <ele>1278</ele>
        <time>2011-03-05T15:06:04Z</time>
      </trkpt>
      <trkpt lat="42.96907" lon="-0.13845">
        <ele>1270</ele>
        <time>2011-03-05T15:06:35Z</time>
      </trkpt>
      <trkpt lat="42.9694" lon="-0.13866">
        <ele>1262</ele>
        <time>2011-03-05T15:07:08Z</time>
      </trkpt>
      <trkpt lat="42.96947" lon="-0.13874">
        <ele>1261</ele>
        <time>2011-03-05T15:07:21Z</time>
      </trkpt>
      <trkpt lat="42.96959" lon="-0.13885">
        <ele>1260</ele>
        <time>2011-03-05T15:07:30Z</time>
      </trkpt>
      <trkpt lat="42.96985" lon="-0.13907">
        <ele>1252</ele>
        <time>2011-03-05T15:08:05Z</time>
      </trkpt>
      <trkpt lat="42.96988" lon="-0.13911">
        <ele>1250</ele>
        <time>2011-03-05T15:08:16Z</time>
      </trkpt>
      <trkpt lat="42.97017" lon="-0.13915">
        <ele>1240</ele>
        <time>2011-03-05T15:08:45Z</time>
      </trkpt>
      <trkpt lat="42.97047" lon="-0.13921">
        <ele>1227</ele>
        <time>2011-03-05T15:09:22Z</time>
      </trkpt>
      <trkpt lat="42.97067" lon="-0.13927">
        <ele>1221</ele>
        <time>2011-03-05T15:09:36Z</time>
      </trkpt>
      <trkpt lat="42.97103" lon="-0.13959">
        <ele>1204</ele>
        <time>2011-03-05T15:10:13Z</time>
      </trkpt>
      <trkpt lat="42.97129" lon="-0.13975">
        <ele>1195</ele>
        <time>2011-03-05T15:10:38Z</time>
      </trkpt>
      <trkpt lat="42.97161" lon="-0.1397">
        <ele>1182</ele>
        <time>2011-03-05T15:11:12Z</time>
      </trkpt>
      <trkpt lat="42.97171" lon="-0.13972">
        <ele>1177</ele>
        <time>2011-03-05T15:11:23Z</time>
      </trkpt>
      <trkpt lat="42.97199" lon="-0.13954">
        <ele>1166</ele>
        <time>2011-03-05T15:11:53Z</time>
      </trkpt>
      <trkpt lat="42.9722" lon="-0.13956">
        <ele>1159</ele>
        <time>2011-03-05T15:12:14Z</time>
      </trkpt>
      <trkpt lat="42.97226" lon="-0.13948">
        <ele>1157</ele>
        <time>2011-03-05T15:12:21Z</time>
      </trkpt>
      <trkpt lat="42.9723" lon="-0.13934">
        <ele>1155</ele>
        <time>2011-03-05T15:12:30Z</time>
      </trkpt>
      <trkpt lat="42.97231" lon="-0.13919">
        <ele>1154</ele>
        <time>2011-03-05T15:12:40Z</time>
      </trkpt>
      <trkpt lat="42.97233" lon="-0.13843">
        <ele>1152</ele>
        <time>2011-03-05T15:13:18Z</time>
      </trkpt>
      <trkpt lat="42.97248" lon="-0.13801">
        <ele>1151</ele>
        <time>2011-03-05T15:13:49Z</time>
      </trkpt>
      <trkpt lat="42.97267" lon="-0.13756">
        <ele>1143</ele>
        <time>2011-03-05T15:14:26Z</time>
      </trkpt>
      <trkpt lat="42.97273" lon="-0.137">
        <ele>1138</ele>
        <time>2011-03-05T15:15:04Z</time>
      </trkpt>
      <trkpt lat="42.97279" lon="-0.13691">
        <ele>1138</ele>
        <time>2011-03-05T15:15:12Z</time>
      </trkpt>
      <trkpt lat="42.97281" lon="-0.13686">
        <ele>1137</ele>
        <time>2011-03-05T15:15:21Z</time>
      </trkpt>
      <trkpt lat="42.97285" lon="-0.13682">
        <ele>1137</ele>
        <time>2011-03-05T15:15:27Z</time>
      </trkpt>
      <trkpt lat="42.97284" lon="-0.13676">
        <ele>1136</ele>
        <time>2011-03-05T15:17:31Z</time>
      </trkpt>
    </trkseg>
  </trk>
</gpx>